<?xml version="1.0" encoding="UTF-8"?>
<gpx version="1.1" creator="https://www.youtrack.es" xsi:schemaLocation="http://www.topografix.com/GPX/1/1 http://www.topografix.com/GPX/1/1/gpx.xsd http://www.garmin.com/xmlschemas/GpxExtensions/v3 http://www.garmin.com/xmlschemas/GpxExtensionsv3.xsd http://www.garmin.com/xmlschemas/TrackPointExtension/v1 http://www.garmin.com/xmlschemas/TrackPointExtensionv1.xsd" xmlns:gpxtpx="http://www.garmin.com/xmlschemas/TrackPointExtension/v1" xmlns:gpxx="http://www.garmin.com/xmlschemas/GpxExtensions/v3" xmlns:xsi="http://www.w3.org/2001/XMLSchema-instance">
  <metadata>
    <link href="https://www.youtrack.es">
      <text>YouTrack.es</text>
    </link>
    <time>2026-05-08T23:18:28Z</time>
  </metadata>
  <trk>
    <src>https://www.youtrack.es</src>
    <link href="https://www.youtrack.es/ruta/19664-cadetes-44km">
      <text>YouTrack.es</text>
    </link>
    <trkseg>
      <trkpt lat="42.43042297661" lon="-8.65379861556">
        <ele>7.16274452209</ele>
        <time>2021-02-02T09:03:48.000Z</time>
      </trkpt>
      <trkpt lat="42.43005760945" lon="-8.65396499634">
        <ele>6.76216650009</ele>
        <time>2021-02-02T09:03:48.006Z</time>
      </trkpt>
      <trkpt lat="42.43005752563" lon="-8.65396499634">
        <ele>6.76246786118</ele>
        <time>2021-02-02T09:03:48.012Z</time>
      </trkpt>
      <trkpt lat="42.42970347404" lon="-8.6540722847">
        <ele>4.99317646027</ele>
        <time>2021-02-02T09:03:48.024Z</time>
      </trkpt>
      <trkpt lat="42.42943525314" lon="-8.65405082703">
        <ele>4.60848712921</ele>
        <time>2021-02-02T09:03:48.040Z</time>
      </trkpt>
      <trkpt lat="42.42920994759" lon="-8.65392208099">
        <ele>5.77341842651</ele>
        <time>2021-02-02T09:03:48.060Z</time>
      </trkpt>
      <trkpt lat="42.42897617631" lon="-8.65351304412">
        <ele>5.49348831177</ele>
        <time>2021-02-02T09:03:48.086Z</time>
      </trkpt>
      <trkpt lat="42.42897613334" lon="-8.65351296892">
        <ele>5.4932179451</ele>
        <time>2021-02-02T09:03:48.112Z</time>
      </trkpt>
      <trkpt lat="42.42897617631" lon="-8.65351304412">
        <ele>5.49348831177</ele>
        <time>2021-02-02T09:03:48.138Z</time>
      </trkpt>
      <trkpt lat="42.42892882661" lon="-8.65318690116">
        <ele>5.2148270607</ele>
        <time>2021-02-02T09:03:48.168Z</time>
      </trkpt>
      <trkpt lat="42.42892886357" lon="-8.65318715572">
        <ele>5.21496009827</ele>
        <time>2021-02-02T09:03:48.198Z</time>
      </trkpt>
      <trkpt lat="42.42892" lon="-8.65319">
        <ele>5.18306016922</ele>
        <time>2021-02-02T09:03:48.228Z</time>
      </trkpt>
      <trkpt lat="42.4289" lon="-8.65259">
        <ele>5.9396276474</ele>
        <time>2021-02-02T09:03:48.266Z</time>
      </trkpt>
      <trkpt lat="42.42887" lon="-8.65239">
        <ele>6.00311040878</ele>
        <time>2021-02-02T09:03:48.306Z</time>
      </trkpt>
      <trkpt lat="42.42878" lon="-8.65214">
        <ele>5.35840034485</ele>
        <time>2021-02-02T09:03:48.349Z</time>
      </trkpt>
      <trkpt lat="42.42876" lon="-8.65212">
        <ele>5.21444034576</ele>
        <time>2021-02-02T09:03:48.393Z</time>
      </trkpt>
      <trkpt lat="42.42875" lon="-8.65209">
        <ele>5.19927787781</ele>
        <time>2021-02-02T09:03:48.437Z</time>
      </trkpt>
      <trkpt lat="42.42874" lon="-8.65206">
        <ele>5.27125787735</ele>
        <time>2021-02-02T09:03:48.481Z</time>
      </trkpt>
      <trkpt lat="42.42859" lon="-8.65194">
        <ele>5.50830316544</ele>
        <time>2021-02-02T09:03:48.528Z</time>
      </trkpt>
      <trkpt lat="42.42842" lon="-8.65187">
        <ele>6.87592315674</ele>
        <time>2021-02-02T09:03:48.578Z</time>
      </trkpt>
      <trkpt lat="42.42838846721" lon="-8.6518621168">
        <ele>7.07452487946</ele>
        <time>2021-02-02T09:03:48.629Z</time>
      </trkpt>
      <trkpt lat="42.42838" lon="-8.65186">
        <ele>7.12785339355</ele>
        <time>2021-02-02T09:03:48.680Z</time>
      </trkpt>
      <trkpt lat="42.42821" lon="-8.65183">
        <ele>5.45798397064</ele>
        <time>2021-02-02T09:03:48.733Z</time>
      </trkpt>
      <trkpt lat="42.42802" lon="-8.6519">
        <ele>3.43043589592</ele>
        <time>2021-02-02T09:03:48.790Z</time>
      </trkpt>
      <trkpt lat="42.42722" lon="-8.65246">
        <ele>1.85326302052</ele>
        <time>2021-02-02T09:03:48.861Z</time>
      </trkpt>
      <trkpt lat="42.4271" lon="-8.65254">
        <ele>1.90358233452</ele>
        <time>2021-02-02T09:03:48.934Z</time>
      </trkpt>
      <trkpt lat="42.42707" lon="-8.65256">
        <ele>2.0580394268</ele>
        <time>2021-02-02T09:03:49.008Z</time>
      </trkpt>
      <trkpt lat="42.42701" lon="-8.65257">
        <ele>2.95778942108</ele>
        <time>2021-02-02T09:03:49.083Z</time>
      </trkpt>
      <trkpt lat="42.42668" lon="-8.6528">
        <ele>0.36378782988</ele>
        <time>2021-02-02T09:03:49.164Z</time>
      </trkpt>
      <trkpt lat="42.42635" lon="-8.65303">
        <ele>0.93407386541</ele>
        <time>2021-02-02T09:03:49.251Z</time>
      </trkpt>
      <trkpt lat="42.42607" lon="-8.65326">
        <ele>1.6221050024</ele>
        <time>2021-02-02T09:03:49.343Z</time>
      </trkpt>
      <trkpt lat="42.4258" lon="-8.65349">
        <ele>3.22216057777</ele>
        <time>2021-02-02T09:03:49.440Z</time>
      </trkpt>
      <trkpt lat="42.42571" lon="-8.65358">
        <ele>3.54607057571</ele>
        <time>2021-02-02T09:03:49.539Z</time>
      </trkpt>
      <trkpt lat="42.42487" lon="-8.65447">
        <ele>1.42838096619</ele>
        <time>2021-02-02T09:03:49.655Z</time>
      </trkpt>
      <trkpt lat="42.42408" lon="-8.6553">
        <ele>0.0</ele>
        <time>2021-02-02T09:03:49.787Z</time>
      </trkpt>
      <trkpt lat="42.42382" lon="-8.65558">
        <ele>0.0</ele>
        <time>2021-02-02T09:03:49.924Z</time>
      </trkpt>
      <trkpt lat="42.4235" lon="-8.65598">
        <ele>0.0</ele>
        <time>2021-02-02T09:03:50.068Z</time>
      </trkpt>
      <trkpt lat="42.42321" lon="-8.65643">
        <ele>0.0</ele>
        <time>2021-02-02T09:03:50.219Z</time>
      </trkpt>
      <trkpt lat="42.423" lon="-8.65685">
        <ele>0.0</ele>
        <time>2021-02-02T09:03:50.376Z</time>
      </trkpt>
      <trkpt lat="42.42285" lon="-8.65718">
        <ele>0.0</ele>
        <time>2021-02-02T09:03:50.538Z</time>
      </trkpt>
      <trkpt lat="42.42264" lon="-8.65777">
        <ele>0.83732295036</ele>
        <time>2021-02-02T09:03:50.707Z</time>
      </trkpt>
      <trkpt lat="42.42251093073" lon="-8.65822670667">
        <ele>0.0</ele>
        <time>2021-02-02T09:03:50.882Z</time>
      </trkpt>
      <trkpt lat="42.42251" lon="-8.65823">
        <ele>0.0</ele>
        <time>2021-02-02T09:03:51.057Z</time>
      </trkpt>
      <trkpt lat="42.42228" lon="-8.65939">
        <ele>0.0</ele>
        <time>2021-02-02T09:03:51.247Z</time>
      </trkpt>
      <trkpt lat="42.42209" lon="-8.66036">
        <ele>0.0</ele>
        <time>2021-02-02T09:03:51.448Z</time>
      </trkpt>
      <trkpt lat="42.42167" lon="-8.66235">
        <ele>0.0</ele>
        <time>2021-02-02T09:03:51.674Z</time>
      </trkpt>
      <trkpt lat="42.42153" lon="-8.66297">
        <ele>0.0</ele>
        <time>2021-02-02T09:03:51.908Z</time>
      </trkpt>
      <trkpt lat="42.42139" lon="-8.66348">
        <ele>0.0</ele>
        <time>2021-02-02T09:03:52.148Z</time>
      </trkpt>
      <trkpt lat="42.42122" lon="-8.66397">
        <ele>0.0</ele>
        <time>2021-02-02T09:03:52.394Z</time>
      </trkpt>
      <trkpt lat="42.42104" lon="-8.66435">
        <ele>0.0</ele>
        <time>2021-02-02T09:03:52.646Z</time>
      </trkpt>
      <trkpt lat="42.42067" lon="-8.66489">
        <ele>0.0</ele>
        <time>2021-02-02T09:03:52.907Z</time>
      </trkpt>
      <trkpt lat="42.42006" lon="-8.66554">
        <ele>0.22149403393</ele>
        <time>2021-02-02T09:03:53.180Z</time>
      </trkpt>
      <trkpt lat="42.41896" lon="-8.66667">
        <ele>0.0</ele>
        <time>2021-02-02T09:03:53.475Z</time>
      </trkpt>
      <trkpt lat="42.41854" lon="-8.66712">
        <ele>1.9201887846</ele>
        <time>2021-02-02T09:03:53.779Z</time>
      </trkpt>
      <trkpt lat="42.41797" lon="-8.66775">
        <ele>4.71096897125</ele>
        <time>2021-02-02T09:03:54.094Z</time>
      </trkpt>
      <trkpt lat="42.41771" lon="-8.6681">
        <ele>1.52807557583</ele>
        <time>2021-02-02T09:03:54.415Z</time>
      </trkpt>
      <trkpt lat="42.41739" lon="-8.66857">
        <ele>0.0</ele>
        <time>2021-02-02T09:03:54.744Z</time>
      </trkpt>
      <trkpt lat="42.4171770191" lon="-8.66894755713">
        <ele>0.0</ele>
        <time>2021-02-02T09:03:55.079Z</time>
      </trkpt>
      <trkpt lat="42.41717" lon="-8.66896">
        <ele>0.0</ele>
        <time>2021-02-02T09:03:55.414Z</time>
      </trkpt>
      <trkpt lat="42.4169" lon="-8.66944">
        <ele>0.0</ele>
        <time>2021-02-02T09:03:55.756Z</time>
      </trkpt>
      <trkpt lat="42.41649" lon="-8.67016">
        <ele>0.0</ele>
        <time>2021-02-02T09:03:56.109Z</time>
      </trkpt>
      <trkpt lat="42.41631" lon="-8.67045">
        <ele>0.0</ele>
        <time>2021-02-02T09:03:56.466Z</time>
      </trkpt>
      <trkpt lat="42.41594" lon="-8.67098">
        <ele>0.53196334839</ele>
        <time>2021-02-02T09:03:56.832Z</time>
      </trkpt>
      <trkpt lat="42.41544" lon="-8.67162">
        <ele>2.32585382462</ele>
        <time>2021-02-02T09:03:57.209Z</time>
      </trkpt>
      <trkpt lat="42.41243" lon="-8.67546">
        <ele>1.0</ele>
        <time>2021-02-02T09:03:57.652Z</time>
      </trkpt>
      <trkpt lat="42.40965" lon="-8.67899">
        <ele>0.0</ele>
        <time>2021-02-02T09:03:58.156Z</time>
      </trkpt>
      <trkpt lat="42.40658451618" lon="-8.68292138479">
        <ele>4.0</ele>
        <time>2021-02-02T09:03:58.728Z</time>
      </trkpt>
      <trkpt lat="42.40657" lon="-8.68294">
        <ele>4.0</ele>
        <time>2021-02-02T09:03:59.300Z</time>
      </trkpt>
      <trkpt lat="42.40624" lon="-8.68342">
        <ele>5.4422659874</ele>
        <time>2021-02-02T09:03:59.880Z</time>
      </trkpt>
      <trkpt lat="42.40602" lon="-8.68367">
        <ele>5.97161912918</ele>
        <time>2021-02-02T09:04:00.464Z</time>
      </trkpt>
      <trkpt lat="42.40563" lon="-8.68401">
        <ele>5.38561487198</ele>
        <time>2021-02-02T09:04:01.056Z</time>
      </trkpt>
      <trkpt lat="42.40541" lon="-8.6842">
        <ele>5.49358510971</ele>
        <time>2021-02-02T09:04:01.652Z</time>
      </trkpt>
      <trkpt lat="42.40522" lon="-8.68426">
        <ele>6.18794775009</ele>
        <time>2021-02-02T09:04:02.251Z</time>
      </trkpt>
      <trkpt lat="42.40479" lon="-8.68436">
        <ele>8.14912509918</ele>
        <time>2021-02-02T09:04:02.857Z</time>
      </trkpt>
      <trkpt lat="42.40431" lon="-8.68439">
        <ele>6.98400449753</ele>
        <time>2021-02-02T09:04:03.471Z</time>
      </trkpt>
      <trkpt lat="42.40391" lon="-8.68446">
        <ele>4.42888069153</ele>
        <time>2021-02-02T09:04:04.091Z</time>
      </trkpt>
      <trkpt lat="42.40372" lon="-8.68453">
        <ele>4.65292978287</ele>
        <time>2021-02-02T09:04:04.714Z</time>
      </trkpt>
      <trkpt lat="42.40353" lon="-8.68462">
        <ele>5.04881954193</ele>
        <time>2021-02-02T09:04:05.341Z</time>
      </trkpt>
      <trkpt lat="42.40339" lon="-8.6847">
        <ele>5.19278001785</ele>
        <time>2021-02-02T09:04:05.970Z</time>
      </trkpt>
      <trkpt lat="42.40321" lon="-8.68484">
        <ele>5.21605110168</ele>
        <time>2021-02-02T09:04:06.602Z</time>
      </trkpt>
      <trkpt lat="42.40285" lon="-8.68521">
        <ele>5.71491241455</ele>
        <time>2021-02-02T09:04:07.242Z</time>
      </trkpt>
      <trkpt lat="42.40277445253" lon="-8.68530233583">
        <ele>5.92638635635</ele>
        <time>2021-02-02T09:04:07.883Z</time>
      </trkpt>
      <trkpt lat="42.40276" lon="-8.68532">
        <ele>5.96684265137</ele>
        <time>2021-02-02T09:04:08.525Z</time>
      </trkpt>
      <trkpt lat="42.40197" lon="-8.68628">
        <ele>7.61999464035</ele>
        <time>2021-02-02T09:04:09.184Z</time>
      </trkpt>
      <trkpt lat="42.4015" lon="-8.68683">
        <ele>8.70213794708</ele>
        <time>2021-02-02T09:04:09.853Z</time>
      </trkpt>
      <trkpt lat="42.4012" lon="-8.6872">
        <ele>8.69675064087</ele>
        <time>2021-02-02T09:04:10.528Z</time>
      </trkpt>
      <trkpt lat="42.40094" lon="-8.68757">
        <ele>8.32690906525</ele>
        <time>2021-02-02T09:04:11.209Z</time>
      </trkpt>
      <trkpt lat="42.40062" lon="-8.6881">
        <ele>6.69669532776</ele>
        <time>2021-02-02T09:04:11.898Z</time>
      </trkpt>
      <trkpt lat="42.40021" lon="-8.68898">
        <ele>6.0051651001</ele>
        <time>2021-02-02T09:04:12.599Z</time>
      </trkpt>
      <trkpt lat="42.39993" lon="-8.6896">
        <ele>5.52241039276</ele>
        <time>2021-02-02T09:04:13.309Z</time>
      </trkpt>
      <trkpt lat="42.39963133411" lon="-8.69005281616">
        <ele>6.22671842575</ele>
        <time>2021-02-02T09:04:14.026Z</time>
      </trkpt>
      <trkpt lat="42.39962" lon="-8.69007">
        <ele>6.20566511154</ele>
        <time>2021-02-02T09:04:14.744Z</time>
      </trkpt>
      <trkpt lat="42.39959131208" lon="-8.69001191862">
        <ele>6.5179476738</ele>
        <time>2021-02-02T09:04:15.462Z</time>
      </trkpt>
      <trkpt lat="42.39958168505" lon="-8.68999242783">
        <ele>6.62274265289</ele>
        <time>2021-02-02T09:04:16.181Z</time>
      </trkpt>
      <trkpt lat="42.39978100689" lon="-8.68965121348">
        <ele>6.5097823143</ele>
        <time>2021-02-02T09:04:16.905Z</time>
      </trkpt>
      <trkpt lat="42.39979163941" lon="-8.68963301182">
        <ele>6.46049070358</ele>
        <time>2021-02-02T09:04:17.629Z</time>
      </trkpt>
      <trkpt lat="42.39979" lon="-8.68963">
        <ele>6.48903083801</ele>
        <time>2021-02-02T09:04:18.353Z</time>
      </trkpt>
      <trkpt lat="42.39998" lon="-8.68925">
        <ele>5.86120510101</ele>
        <time>2021-02-02T09:04:19.083Z</time>
      </trkpt>
      <trkpt lat="42.4004" lon="-8.68832">
        <ele>7.61755084991</ele>
        <time>2021-02-02T09:04:19.825Z</time>
      </trkpt>
      <trkpt lat="42.40072" lon="-8.68774">
        <ele>9.22099399567</ele>
        <time>2021-02-02T09:04:20.576Z</time>
      </trkpt>
      <trkpt lat="42.40088" lon="-8.68748">
        <ele>10.44282150269</ele>
        <time>2021-02-02T09:04:21.331Z</time>
      </trkpt>
      <trkpt lat="42.40146" lon="-8.68671">
        <ele>9.96712017059</ele>
        <time>2021-02-02T09:04:22.099Z</time>
      </trkpt>
      <trkpt lat="42.40218" lon="-8.68585">
        <ele>7.41421842575</ele>
        <time>2021-02-02T09:04:22.882Z</time>
      </trkpt>
      <trkpt lat="42.40258" lon="-8.68537">
        <ele>6.93585109711</ele>
        <time>2021-02-02T09:04:23.674Z</time>
      </trkpt>
      <trkpt lat="42.40313" lon="-8.68477">
        <ele>6.30846977234</ele>
        <time>2021-02-02T09:04:24.477Z</time>
      </trkpt>
      <trkpt lat="42.40338" lon="-8.6846">
        <ele>6.34446001053</ele>
        <time>2021-02-02T09:04:25.285Z</time>
      </trkpt>
      <trkpt lat="42.40369" lon="-8.68443">
        <ele>5.94856977463</ele>
        <time>2021-02-02T09:04:26.098Z</time>
      </trkpt>
      <trkpt lat="42.40398" lon="-8.68434">
        <ele>5.68086624146</ele>
        <time>2021-02-02T09:04:26.916Z</time>
      </trkpt>
      <trkpt lat="42.40501" lon="-8.68421">
        <ele>7.73807287216</ele>
        <time>2021-02-02T09:04:27.750Z</time>
      </trkpt>
      <trkpt lat="42.40518" lon="-8.68416">
        <ele>6.51441287994</ele>
        <time>2021-02-02T09:04:28.587Z</time>
      </trkpt>
      <trkpt lat="42.40522" lon="-8.68412">
        <ele>6.22649240494</ele>
        <time>2021-02-02T09:04:29.425Z</time>
      </trkpt>
      <trkpt lat="42.40549" lon="-8.684">
        <ele>5.92546510696</ele>
        <time>2021-02-02T09:04:30.268Z</time>
      </trkpt>
      <trkpt lat="42.4056" lon="-8.6839">
        <ele>5.88947534561</ele>
        <time>2021-02-02T09:04:31.113Z</time>
      </trkpt>
      <trkpt lat="42.406" lon="-8.68349">
        <ele>6.0</ele>
        <time>2021-02-02T09:04:31.966Z</time>
      </trkpt>
      <trkpt lat="42.40617" lon="-8.68328">
        <ele>5.31896686554</ele>
        <time>2021-02-02T09:04:32.822Z</time>
      </trkpt>
      <trkpt lat="42.40688652295" lon="-8.6823573543">
        <ele>2.11542987823</ele>
        <time>2021-02-02T09:04:33.694Z</time>
      </trkpt>
      <trkpt lat="42.4069" lon="-8.68234">
        <ele>2.06692576408</ele>
        <time>2021-02-02T09:04:34.567Z</time>
      </trkpt>
      <trkpt lat="42.40784" lon="-8.68114">
        <ele>1.07708966732</ele>
        <time>2021-02-02T09:04:35.460Z</time>
      </trkpt>
      <trkpt lat="42.41096" lon="-8.67718">
        <ele>3.46559286118</ele>
        <time>2021-02-02T09:04:36.422Z</time>
      </trkpt>
      <trkpt lat="42.41319" lon="-8.67435">
        <ele>4.74545955658</ele>
        <time>2021-02-02T09:04:37.433Z</time>
      </trkpt>
      <trkpt lat="42.4157" lon="-8.67114">
        <ele>0.2085531801</ele>
        <time>2021-02-02T09:04:38.499Z</time>
      </trkpt>
      <trkpt lat="42.41612991777" lon="-8.67054766914">
        <ele>0.0</ele>
        <time>2021-02-02T09:04:39.575Z</time>
      </trkpt>
      <trkpt lat="42.41615" lon="-8.67052">
        <ele>0.0</ele>
        <time>2021-02-02T09:04:40.651Z</time>
      </trkpt>
      <trkpt lat="42.41639" lon="-8.67017">
        <ele>0.0</ele>
        <time>2021-02-02T09:04:41.733Z</time>
      </trkpt>
      <trkpt lat="42.41685" lon="-8.66935">
        <ele>0.0</ele>
        <time>2021-02-02T09:04:42.827Z</time>
      </trkpt>
      <trkpt lat="42.41711" lon="-8.66887">
        <ele>0.0</ele>
        <time>2021-02-02T09:04:43.928Z</time>
      </trkpt>
      <trkpt lat="42.41751" lon="-8.66823">
        <ele>3.79544568062</ele>
        <time>2021-02-02T09:04:45.039Z</time>
      </trkpt>
      <trkpt lat="42.41783" lon="-8.66778">
        <ele>8.16600990295</ele>
        <time>2021-02-02T09:04:46.158Z</time>
      </trkpt>
      <trkpt lat="42.41803" lon="-8.66753">
        <ele>10.0</ele>
        <time>2021-02-02T09:04:47.281Z</time>
      </trkpt>
      <trkpt lat="42.41852" lon="-8.66699">
        <ele>2.74140524864</ele>
        <time>2021-02-02T09:04:48.414Z</time>
      </trkpt>
      <trkpt lat="42.41928" lon="-8.66621">
        <ele>1.60733127594</ele>
        <time>2021-02-02T09:04:49.562Z</time>
      </trkpt>
      <trkpt lat="42.41999" lon="-8.66548">
        <ele>0.83088028431</ele>
        <time>2021-02-02T09:04:50.725Z</time>
      </trkpt>
      <trkpt lat="42.42055" lon="-8.66488">
        <ele>0.0</ele>
        <time>2021-02-02T09:04:51.899Z</time>
      </trkpt>
      <trkpt lat="42.42078" lon="-8.66457">
        <ele>0.0</ele>
        <time>2021-02-02T09:04:53.078Z</time>
      </trkpt>
      <trkpt lat="42.42101" lon="-8.6642">
        <ele>0.0</ele>
        <time>2021-02-02T09:04:54.263Z</time>
      </trkpt>
      <trkpt lat="42.42114" lon="-8.66393">
        <ele>0.0</ele>
        <time>2021-02-02T09:04:55.452Z</time>
      </trkpt>
      <trkpt lat="42.42118127639" lon="-8.66383368849">
        <ele>0.0</ele>
        <time>2021-02-02T09:04:56.642Z</time>
      </trkpt>
      <trkpt lat="42.4212" lon="-8.66379">
        <ele>0.0</ele>
        <time>2021-02-02T09:04:57.833Z</time>
      </trkpt>
      <trkpt lat="42.42134" lon="-8.66336">
        <ele>0.0</ele>
        <time>2021-02-02T09:04:59.029Z</time>
      </trkpt>
      <trkpt lat="42.42159" lon="-8.66234">
        <ele>4.14984703064</ele>
        <time>2021-02-02T09:05:00.238Z</time>
      </trkpt>
      <trkpt lat="42.42189" lon="-8.66094">
        <ele>0.0</ele>
        <time>2021-02-02T09:05:01.464Z</time>
      </trkpt>
      <trkpt lat="42.4221" lon="-8.65992">
        <ele>0.0</ele>
        <time>2021-02-02T09:05:02.703Z</time>
      </trkpt>
      <trkpt lat="42.42225" lon="-8.65907">
        <ele>0.0</ele>
        <time>2021-02-02T09:05:03.952Z</time>
      </trkpt>
      <trkpt lat="42.4223" lon="-8.65851">
        <ele>2.40449881554</ele>
        <time>2021-02-02T09:05:05.208Z</time>
      </trkpt>
      <trkpt lat="42.42237" lon="-8.65818">
        <ele>1.17117464542</ele>
        <time>2021-02-02T09:05:06.468Z</time>
      </trkpt>
      <trkpt lat="42.42249" lon="-8.65777">
        <ele>2.06126070023</ele>
        <time>2021-02-02T09:05:07.733Z</time>
      </trkpt>
      <trkpt lat="42.42256" lon="-8.65758">
        <ele>1.98928070068</ele>
        <time>2021-02-02T09:05:09.001Z</time>
      </trkpt>
      <trkpt lat="42.422575555" lon="-8.65754500129">
        <ele>1.94729375839</ele>
        <time>2021-02-02T09:05:10.269Z</time>
      </trkpt>
      <trkpt lat="42.4226" lon="-8.65749">
        <ele>1.6878644228</ele>
        <time>2021-02-02T09:05:11.538Z</time>
      </trkpt>
      <trkpt lat="42.42283" lon="-8.65699">
        <ele>0.0</ele>
        <time>2021-02-02T09:05:12.814Z</time>
      </trkpt>
      <trkpt lat="42.42305" lon="-8.65652">
        <ele>0.0</ele>
        <time>2021-02-02T09:05:14.096Z</time>
      </trkpt>
      <trkpt lat="42.42329" lon="-8.6561">
        <ele>1.02216053009</ele>
        <time>2021-02-02T09:05:15.385Z</time>
      </trkpt>
      <trkpt lat="42.42358" lon="-8.65569">
        <ele>0.1424048841</ele>
        <time>2021-02-02T09:05:16.680Z</time>
      </trkpt>
      <trkpt lat="42.42393" lon="-8.6553">
        <ele>0.0</ele>
        <time>2021-02-02T09:05:17.983Z</time>
      </trkpt>
      <trkpt lat="42.42428" lon="-8.65495">
        <ele>0.0</ele>
        <time>2021-02-02T09:05:19.293Z</time>
      </trkpt>
      <trkpt lat="42.42548" lon="-8.65367">
        <ele>6.08075523376</ele>
        <time>2021-02-02T09:05:20.627Z</time>
      </trkpt>
      <trkpt lat="42.42604801304" lon="-8.65310198745">
        <ele>3.44556951523</ele>
        <time>2021-02-02T09:05:21.972Z</time>
      </trkpt>
      <trkpt lat="42.42609" lon="-8.65306">
        <ele>3.14334917068</ele>
        <time>2021-02-02T09:05:23.318Z</time>
      </trkpt>
      <trkpt lat="42.42665" lon="-8.65252">
        <ele>5.32191038132</ele>
        <time>2021-02-02T09:05:24.675Z</time>
      </trkpt>
      <trkpt lat="42.4269" lon="-8.65234">
        <ele>7.91319084167</ele>
        <time>2021-02-02T09:05:26.037Z</time>
      </trkpt>
      <trkpt lat="42.42692" lon="-8.65228">
        <ele>8.77695083618</ele>
        <time>2021-02-02T09:05:27.400Z</time>
      </trkpt>
      <trkpt lat="42.42697" lon="-8.65222">
        <ele>8.8349905014</ele>
        <time>2021-02-02T09:05:28.764Z</time>
      </trkpt>
      <trkpt lat="42.42702" lon="-8.65221">
        <ele>8.65504074097</ele>
        <time>2021-02-02T09:05:30.128Z</time>
      </trkpt>
      <trkpt lat="42.42706" lon="-8.65222">
        <ele>8.51107978821</ele>
        <time>2021-02-02T09:05:31.493Z</time>
      </trkpt>
      <trkpt lat="42.42707" lon="-8.65222">
        <ele>8.47509002686</ele>
        <time>2021-02-02T09:05:32.858Z</time>
      </trkpt>
      <trkpt lat="42.42716" lon="-8.65215">
        <ele>8.15118026733</ele>
        <time>2021-02-02T09:05:34.225Z</time>
      </trkpt>
      <trkpt lat="42.42729" lon="-8.65204">
        <ele>8.31668949127</ele>
        <time>2021-02-02T09:05:35.594Z</time>
      </trkpt>
      <trkpt lat="42.4275" lon="-8.6519">
        <ele>9.14495944977</ele>
        <time>2021-02-02T09:05:36.967Z</time>
      </trkpt>
      <trkpt lat="42.42769" lon="-8.65177">
        <ele>10.51257991791</ele>
        <time>2021-02-02T09:05:38.344Z</time>
      </trkpt>
      <trkpt lat="42.42784" lon="-8.65171">
        <ele>10.95234680176</ele>
        <time>2021-02-02T09:05:39.723Z</time>
      </trkpt>
      <trkpt lat="42.42796" lon="-8.65169">
        <ele>11.13529586792</ele>
        <time>2021-02-02T09:05:41.104Z</time>
      </trkpt>
      <trkpt lat="42.42816" lon="-8.6517">
        <ele>10.16767597198</ele>
        <time>2021-02-02T09:05:42.488Z</time>
      </trkpt>
      <trkpt lat="42.42821134378" lon="-8.65171711458">
        <ele>9.40547466278</ele>
        <time>2021-02-02T09:05:43.873Z</time>
      </trkpt>
      <trkpt lat="42.42825" lon="-8.65173">
        <ele>8.61710643768</ele>
        <time>2021-02-02T09:05:45.259Z</time>
      </trkpt>
      <trkpt lat="42.42881" lon="-8.65191">
        <ele>6.06303787231</ele>
        <time>2021-02-02T09:05:46.654Z</time>
      </trkpt>
      <trkpt lat="42.42884" lon="-8.6519">
        <ele>6.2069978714</ele>
        <time>2021-02-02T09:05:48.049Z</time>
      </trkpt>
      <trkpt lat="42.42886" lon="-8.65191">
        <ele>6.24298810959</ele>
        <time>2021-02-02T09:05:49.445Z</time>
      </trkpt>
      <trkpt lat="42.42892" lon="-8.65201">
        <ele>6.18306016922</ele>
        <time>2021-02-02T09:05:50.842Z</time>
      </trkpt>
      <trkpt lat="42.42893" lon="-8.65206">
        <ele>6.21905040741</ele>
        <time>2021-02-02T09:05:52.240Z</time>
      </trkpt>
      <trkpt lat="42.42898" lon="-8.65217">
        <ele>6.39900016785</ele>
        <time>2021-02-02T09:05:53.639Z</time>
      </trkpt>
      <trkpt lat="42.42898841439" lon="-8.65240560155">
        <ele>6.42928361893</ele>
        <time>2021-02-02T09:05:55.041Z</time>
      </trkpt>
      <trkpt lat="42.42899" lon="-8.65245">
        <ele>6.43499040604</ele>
        <time>2021-02-02T09:05:56.444Z</time>
      </trkpt>
      <trkpt lat="42.42901841323" lon="-8.65312244376">
        <ele>5.53724956512</ele>
        <time>2021-02-02T09:05:57.855Z</time>
      </trkpt>
      <trkpt lat="42.42902" lon="-8.65316">
        <ele>5.54296016693</ele>
        <time>2021-02-02T09:05:59.266Z</time>
      </trkpt>
      <trkpt lat="42.42904" lon="-8.65333">
        <ele>5.16528749466</ele>
        <time>2021-02-02T09:06:00.679Z</time>
      </trkpt>
      <trkpt lat="42.4291" lon="-8.65354">
        <ele>5.1691198349</ele>
        <time>2021-02-02T09:06:02.095Z</time>
      </trkpt>
      <trkpt lat="42.42922" lon="-8.65374">
        <ele>5.31030273438</ele>
        <time>2021-02-02T09:06:03.514Z</time>
      </trkpt>
      <trkpt lat="42.42939" lon="-8.65388">
        <ele>5.12540960312</ele>
        <time>2021-02-02T09:06:04.936Z</time>
      </trkpt>
      <trkpt lat="42.42946411757" lon="-8.65391705877">
        <ele>5.2987279892</ele>
        <time>2021-02-02T09:06:06.359Z</time>
      </trkpt>
      <trkpt lat="42.42949" lon="-8.65393">
        <ele>5.25215196609</ele>
        <time>2021-02-02T09:06:07.783Z</time>
      </trkpt>
      <trkpt lat="42.42965" lon="-8.65397">
        <ele>5.67225790024</ele>
        <time>2021-02-02T09:06:09.209Z</time>
      </trkpt>
      <trkpt lat="42.42989" lon="-8.65391">
        <ele>7.65965032578</ele>
        <time>2021-02-02T09:06:10.639Z</time>
      </trkpt>
      <trkpt lat="42.43204" lon="-8.65293">
        <ele>9.99077987671</ele>
        <time>2021-02-02T09:06:12.106Z</time>
      </trkpt>
      <trkpt lat="42.43219278826" lon="-8.65287058237">
        <ele>8.53088092804</ele>
        <time>2021-02-02T09:06:13.575Z</time>
      </trkpt>
      <trkpt lat="42.43222" lon="-8.65286">
        <ele>8.44865322113</ele>
        <time>2021-02-02T09:06:15.045Z</time>
      </trkpt>
      <trkpt lat="42.43242" lon="-8.6527">
        <ele>9.30619239807</ele>
        <time>2021-02-02T09:06:16.518Z</time>
      </trkpt>
      <trkpt lat="42.43287" lon="-8.65212">
        <ele>11.48386573792</ele>
        <time>2021-02-02T09:06:18.001Z</time>
      </trkpt>
      <trkpt lat="42.43294341454" lon="-8.65201395682">
        <ele>11.95358753204</ele>
        <time>2021-02-02T09:06:19.486Z</time>
      </trkpt>
      <trkpt lat="42.43296" lon="-8.65199">
        <ele>12.05970573425</ele>
        <time>2021-02-02T09:06:20.971Z</time>
      </trkpt>
      <trkpt lat="42.43300585956" lon="-8.65208667331">
        <ele>9.75975322723</ele>
        <time>2021-02-02T09:06:22.458Z</time>
      </trkpt>
      <trkpt lat="42.43301895176" lon="-8.65211427212">
        <ele>9.0275182724</ele>
        <time>2021-02-02T09:06:23.945Z</time>
      </trkpt>
      <trkpt lat="42.43302" lon="-8.65211">
        <ele>9.08553218842</ele>
        <time>2021-02-02T09:06:25.432Z</time>
      </trkpt>
      <trkpt lat="42.43247" lon="-8.6528">
        <ele>8.22649288177</ele>
        <time>2021-02-02T09:06:26.931Z</time>
      </trkpt>
      <trkpt lat="42.43224" lon="-8.65297">
        <ele>4.34579277039</ele>
        <time>2021-02-02T09:06:28.434Z</time>
      </trkpt>
      <trkpt lat="42.43138431548" lon="-8.65335894767">
        <ele>7.08802175522</ele>
        <time>2021-02-02T09:06:29.952Z</time>
      </trkpt>
      <trkpt lat="42.43136" lon="-8.65337">
        <ele>7.22682571411</ele>
        <time>2021-02-02T09:06:31.470Z</time>
      </trkpt>
      <trkpt lat="42.43073453421" lon="-8.65364905409">
        <ele>7.65791988373</ele>
        <time>2021-02-02T09:06:32.999Z</time>
      </trkpt>
      <trkpt lat="42.43071" lon="-8.65366">
        <ele>7.54801464081</ele>
        <time>2021-02-02T09:06:34.528Z</time>
      </trkpt>
      <trkpt lat="42.43044370131" lon="-8.65377937532">
        <ele>7.26383781433</ele>
        <time>2021-02-02T09:06:36.062Z</time>
      </trkpt>
      <trkpt lat="42.43042" lon="-8.65379">
        <ele>7.51680088043</ele>
        <time>2021-02-02T09:06:37.596Z</time>
      </trkpt>
      <trkpt lat="42.43045714854" lon="-8.65377761716">
        <ele>6.98201036453</ele>
        <time>2021-02-02T09:06:39.131Z</time>
      </trkpt>
      <trkpt lat="42.43042297661" lon="-8.65379861556">
        <ele>7.16274452209</ele>
        <time>2021-02-02T09:03:48.000Z</time>
      </trkpt>
      <trkpt lat="42.43005760945" lon="-8.65396499634">
        <ele>6.76216650009</ele>
        <time>2021-02-02T09:03:48.006Z</time>
      </trkpt>
      <trkpt lat="42.43005752563" lon="-8.65396499634">
        <ele>6.76246786118</ele>
        <time>2021-02-02T09:03:48.012Z</time>
      </trkpt>
      <trkpt lat="42.42970347404" lon="-8.6540722847">
        <ele>4.99317646027</ele>
        <time>2021-02-02T09:03:48.024Z</time>
      </trkpt>
      <trkpt lat="42.42943525314" lon="-8.65405082703">
        <ele>4.60848712921</ele>
        <time>2021-02-02T09:03:48.040Z</time>
      </trkpt>
      <trkpt lat="42.42920994759" lon="-8.65392208099">
        <ele>5.77341842651</ele>
        <time>2021-02-02T09:03:48.060Z</time>
      </trkpt>
      <trkpt lat="42.42897617631" lon="-8.65351304412">
        <ele>5.49348831177</ele>
        <time>2021-02-02T09:03:48.086Z</time>
      </trkpt>
      <trkpt lat="42.42897613334" lon="-8.65351296892">
        <ele>5.4932179451</ele>
        <time>2021-02-02T09:03:48.112Z</time>
      </trkpt>
      <trkpt lat="42.42897617631" lon="-8.65351304412">
        <ele>5.49348831177</ele>
        <time>2021-02-02T09:03:48.138Z</time>
      </trkpt>
      <trkpt lat="42.42892882661" lon="-8.65318690116">
        <ele>5.2148270607</ele>
        <time>2021-02-02T09:03:48.168Z</time>
      </trkpt>
      <trkpt lat="42.42892886357" lon="-8.65318715572">
        <ele>5.21496009827</ele>
        <time>2021-02-02T09:03:48.198Z</time>
      </trkpt>
      <trkpt lat="42.42892" lon="-8.65319">
        <ele>5.18306016922</ele>
        <time>2021-02-02T09:03:48.228Z</time>
      </trkpt>
      <trkpt lat="42.4289" lon="-8.65259">
        <ele>5.9396276474</ele>
        <time>2021-02-02T09:03:48.266Z</time>
      </trkpt>
      <trkpt lat="42.42887" lon="-8.65239">
        <ele>6.00311040878</ele>
        <time>2021-02-02T09:03:48.306Z</time>
      </trkpt>
      <trkpt lat="42.42878" lon="-8.65214">
        <ele>5.35840034485</ele>
        <time>2021-02-02T09:03:48.349Z</time>
      </trkpt>
      <trkpt lat="42.42876" lon="-8.65212">
        <ele>5.21444034576</ele>
        <time>2021-02-02T09:03:48.393Z</time>
      </trkpt>
      <trkpt lat="42.42875" lon="-8.65209">
        <ele>5.19927787781</ele>
        <time>2021-02-02T09:03:48.437Z</time>
      </trkpt>
      <trkpt lat="42.42874" lon="-8.65206">
        <ele>5.27125787735</ele>
        <time>2021-02-02T09:03:48.481Z</time>
      </trkpt>
      <trkpt lat="42.42859" lon="-8.65194">
        <ele>5.50830316544</ele>
        <time>2021-02-02T09:03:48.528Z</time>
      </trkpt>
      <trkpt lat="42.42842" lon="-8.65187">
        <ele>6.87592315674</ele>
        <time>2021-02-02T09:03:48.578Z</time>
      </trkpt>
      <trkpt lat="42.42838846721" lon="-8.6518621168">
        <ele>7.07452487946</ele>
        <time>2021-02-02T09:03:48.629Z</time>
      </trkpt>
      <trkpt lat="42.42838" lon="-8.65186">
        <ele>7.12785339355</ele>
        <time>2021-02-02T09:03:48.680Z</time>
      </trkpt>
      <trkpt lat="42.42821" lon="-8.65183">
        <ele>5.45798397064</ele>
        <time>2021-02-02T09:03:48.733Z</time>
      </trkpt>
      <trkpt lat="42.42802" lon="-8.6519">
        <ele>3.43043589592</ele>
        <time>2021-02-02T09:03:48.790Z</time>
      </trkpt>
      <trkpt lat="42.42722" lon="-8.65246">
        <ele>1.85326302052</ele>
        <time>2021-02-02T09:03:48.861Z</time>
      </trkpt>
      <trkpt lat="42.4271" lon="-8.65254">
        <ele>1.90358233452</ele>
        <time>2021-02-02T09:03:48.934Z</time>
      </trkpt>
      <trkpt lat="42.42707" lon="-8.65256">
        <ele>2.0580394268</ele>
        <time>2021-02-02T09:03:49.008Z</time>
      </trkpt>
      <trkpt lat="42.42701" lon="-8.65257">
        <ele>2.95778942108</ele>
        <time>2021-02-02T09:03:49.083Z</time>
      </trkpt>
      <trkpt lat="42.42668" lon="-8.6528">
        <ele>0.36378782988</ele>
        <time>2021-02-02T09:03:49.164Z</time>
      </trkpt>
      <trkpt lat="42.42635" lon="-8.65303">
        <ele>0.93407386541</ele>
        <time>2021-02-02T09:03:49.251Z</time>
      </trkpt>
      <trkpt lat="42.42607" lon="-8.65326">
        <ele>1.6221050024</ele>
        <time>2021-02-02T09:03:49.343Z</time>
      </trkpt>
      <trkpt lat="42.4258" lon="-8.65349">
        <ele>3.22216057777</ele>
        <time>2021-02-02T09:03:49.440Z</time>
      </trkpt>
      <trkpt lat="42.42571" lon="-8.65358">
        <ele>3.54607057571</ele>
        <time>2021-02-02T09:03:49.539Z</time>
      </trkpt>
      <trkpt lat="42.42487" lon="-8.65447">
        <ele>1.42838096619</ele>
        <time>2021-02-02T09:03:49.655Z</time>
      </trkpt>
      <trkpt lat="42.42408" lon="-8.6553">
        <ele>0.0</ele>
        <time>2021-02-02T09:03:49.787Z</time>
      </trkpt>
      <trkpt lat="42.42382" lon="-8.65558">
        <ele>0.0</ele>
        <time>2021-02-02T09:03:49.924Z</time>
      </trkpt>
      <trkpt lat="42.4235" lon="-8.65598">
        <ele>0.0</ele>
        <time>2021-02-02T09:03:50.068Z</time>
      </trkpt>
      <trkpt lat="42.42321" lon="-8.65643">
        <ele>0.0</ele>
        <time>2021-02-02T09:03:50.219Z</time>
      </trkpt>
      <trkpt lat="42.423" lon="-8.65685">
        <ele>0.0</ele>
        <time>2021-02-02T09:03:50.376Z</time>
      </trkpt>
      <trkpt lat="42.42285" lon="-8.65718">
        <ele>0.0</ele>
        <time>2021-02-02T09:03:50.538Z</time>
      </trkpt>
      <trkpt lat="42.42264" lon="-8.65777">
        <ele>0.83732295036</ele>
        <time>2021-02-02T09:03:50.707Z</time>
      </trkpt>
      <trkpt lat="42.42251093073" lon="-8.65822670667">
        <ele>0.0</ele>
        <time>2021-02-02T09:03:50.882Z</time>
      </trkpt>
      <trkpt lat="42.42251" lon="-8.65823">
        <ele>0.0</ele>
        <time>2021-02-02T09:03:51.057Z</time>
      </trkpt>
      <trkpt lat="42.42228" lon="-8.65939">
        <ele>0.0</ele>
        <time>2021-02-02T09:03:51.247Z</time>
      </trkpt>
      <trkpt lat="42.42209" lon="-8.66036">
        <ele>0.0</ele>
        <time>2021-02-02T09:03:51.448Z</time>
      </trkpt>
      <trkpt lat="42.42167" lon="-8.66235">
        <ele>0.0</ele>
        <time>2021-02-02T09:03:51.674Z</time>
      </trkpt>
      <trkpt lat="42.42153" lon="-8.66297">
        <ele>0.0</ele>
        <time>2021-02-02T09:03:51.908Z</time>
      </trkpt>
      <trkpt lat="42.42139" lon="-8.66348">
        <ele>0.0</ele>
        <time>2021-02-02T09:03:52.148Z</time>
      </trkpt>
      <trkpt lat="42.42122" lon="-8.66397">
        <ele>0.0</ele>
        <time>2021-02-02T09:03:52.394Z</time>
      </trkpt>
      <trkpt lat="42.42104" lon="-8.66435">
        <ele>0.0</ele>
        <time>2021-02-02T09:03:52.646Z</time>
      </trkpt>
      <trkpt lat="42.42067" lon="-8.66489">
        <ele>0.0</ele>
        <time>2021-02-02T09:03:52.907Z</time>
      </trkpt>
      <trkpt lat="42.42006" lon="-8.66554">
        <ele>0.22149403393</ele>
        <time>2021-02-02T09:03:53.180Z</time>
      </trkpt>
      <trkpt lat="42.41896" lon="-8.66667">
        <ele>0.0</ele>
        <time>2021-02-02T09:03:53.475Z</time>
      </trkpt>
      <trkpt lat="42.41854" lon="-8.66712">
        <ele>1.9201887846</ele>
        <time>2021-02-02T09:03:53.779Z</time>
      </trkpt>
      <trkpt lat="42.41797" lon="-8.66775">
        <ele>4.71096897125</ele>
        <time>2021-02-02T09:03:54.094Z</time>
      </trkpt>
      <trkpt lat="42.41771" lon="-8.6681">
        <ele>1.52807557583</ele>
        <time>2021-02-02T09:03:54.415Z</time>
      </trkpt>
      <trkpt lat="42.41739" lon="-8.66857">
        <ele>0.0</ele>
        <time>2021-02-02T09:03:54.744Z</time>
      </trkpt>
      <trkpt lat="42.4171770191" lon="-8.66894755713">
        <ele>0.0</ele>
        <time>2021-02-02T09:03:55.079Z</time>
      </trkpt>
      <trkpt lat="42.41717" lon="-8.66896">
        <ele>0.0</ele>
        <time>2021-02-02T09:03:55.414Z</time>
      </trkpt>
      <trkpt lat="42.4169" lon="-8.66944">
        <ele>0.0</ele>
        <time>2021-02-02T09:03:55.756Z</time>
      </trkpt>
      <trkpt lat="42.41649" lon="-8.67016">
        <ele>0.0</ele>
        <time>2021-02-02T09:03:56.109Z</time>
      </trkpt>
      <trkpt lat="42.41631" lon="-8.67045">
        <ele>0.0</ele>
        <time>2021-02-02T09:03:56.466Z</time>
      </trkpt>
      <trkpt lat="42.41594" lon="-8.67098">
        <ele>0.53196334839</ele>
        <time>2021-02-02T09:03:56.832Z</time>
      </trkpt>
      <trkpt lat="42.41544" lon="-8.67162">
        <ele>2.32585382462</ele>
        <time>2021-02-02T09:03:57.209Z</time>
      </trkpt>
      <trkpt lat="42.41243" lon="-8.67546">
        <ele>1.0</ele>
        <time>2021-02-02T09:03:57.652Z</time>
      </trkpt>
      <trkpt lat="42.40965" lon="-8.67899">
        <ele>0.0</ele>
        <time>2021-02-02T09:03:58.156Z</time>
      </trkpt>
      <trkpt lat="42.40658451618" lon="-8.68292138479">
        <ele>4.0</ele>
        <time>2021-02-02T09:03:58.728Z</time>
      </trkpt>
      <trkpt lat="42.40657" lon="-8.68294">
        <ele>4.0</ele>
        <time>2021-02-02T09:03:59.300Z</time>
      </trkpt>
      <trkpt lat="42.40624" lon="-8.68342">
        <ele>5.4422659874</ele>
        <time>2021-02-02T09:03:59.880Z</time>
      </trkpt>
      <trkpt lat="42.40602" lon="-8.68367">
        <ele>5.97161912918</ele>
        <time>2021-02-02T09:04:00.464Z</time>
      </trkpt>
      <trkpt lat="42.40563" lon="-8.68401">
        <ele>5.38561487198</ele>
        <time>2021-02-02T09:04:01.056Z</time>
      </trkpt>
      <trkpt lat="42.40541" lon="-8.6842">
        <ele>5.49358510971</ele>
        <time>2021-02-02T09:04:01.652Z</time>
      </trkpt>
      <trkpt lat="42.40522" lon="-8.68426">
        <ele>6.18794775009</ele>
        <time>2021-02-02T09:04:02.251Z</time>
      </trkpt>
      <trkpt lat="42.40479" lon="-8.68436">
        <ele>8.14912509918</ele>
        <time>2021-02-02T09:04:02.857Z</time>
      </trkpt>
      <trkpt lat="42.40431" lon="-8.68439">
        <ele>6.98400449753</ele>
        <time>2021-02-02T09:04:03.471Z</time>
      </trkpt>
      <trkpt lat="42.40391" lon="-8.68446">
        <ele>4.42888069153</ele>
        <time>2021-02-02T09:04:04.091Z</time>
      </trkpt>
      <trkpt lat="42.40372" lon="-8.68453">
        <ele>4.65292978287</ele>
        <time>2021-02-02T09:04:04.714Z</time>
      </trkpt>
      <trkpt lat="42.40353" lon="-8.68462">
        <ele>5.04881954193</ele>
        <time>2021-02-02T09:04:05.341Z</time>
      </trkpt>
      <trkpt lat="42.40339" lon="-8.6847">
        <ele>5.19278001785</ele>
        <time>2021-02-02T09:04:05.970Z</time>
      </trkpt>
      <trkpt lat="42.40321" lon="-8.68484">
        <ele>5.21605110168</ele>
        <time>2021-02-02T09:04:06.602Z</time>
      </trkpt>
      <trkpt lat="42.40285" lon="-8.68521">
        <ele>5.71491241455</ele>
        <time>2021-02-02T09:04:07.242Z</time>
      </trkpt>
      <trkpt lat="42.40277445253" lon="-8.68530233583">
        <ele>5.92638635635</ele>
        <time>2021-02-02T09:04:07.883Z</time>
      </trkpt>
      <trkpt lat="42.40276" lon="-8.68532">
        <ele>5.96684265137</ele>
        <time>2021-02-02T09:04:08.525Z</time>
      </trkpt>
      <trkpt lat="42.40197" lon="-8.68628">
        <ele>7.61999464035</ele>
        <time>2021-02-02T09:04:09.184Z</time>
      </trkpt>
      <trkpt lat="42.4015" lon="-8.68683">
        <ele>8.70213794708</ele>
        <time>2021-02-02T09:04:09.853Z</time>
      </trkpt>
      <trkpt lat="42.4012" lon="-8.6872">
        <ele>8.69675064087</ele>
        <time>2021-02-02T09:04:10.528Z</time>
      </trkpt>
      <trkpt lat="42.40094" lon="-8.68757">
        <ele>8.32690906525</ele>
        <time>2021-02-02T09:04:11.209Z</time>
      </trkpt>
      <trkpt lat="42.40062" lon="-8.6881">
        <ele>6.69669532776</ele>
        <time>2021-02-02T09:04:11.898Z</time>
      </trkpt>
      <trkpt lat="42.40021" lon="-8.68898">
        <ele>6.0051651001</ele>
        <time>2021-02-02T09:04:12.599Z</time>
      </trkpt>
      <trkpt lat="42.39993" lon="-8.6896">
        <ele>5.52241039276</ele>
        <time>2021-02-02T09:04:13.309Z</time>
      </trkpt>
      <trkpt lat="42.39963133411" lon="-8.69005281616">
        <ele>6.22671842575</ele>
        <time>2021-02-02T09:04:14.026Z</time>
      </trkpt>
      <trkpt lat="42.39962" lon="-8.69007">
        <ele>6.20566511154</ele>
        <time>2021-02-02T09:04:14.744Z</time>
      </trkpt>
      <trkpt lat="42.39959131208" lon="-8.69001191862">
        <ele>6.5179476738</ele>
        <time>2021-02-02T09:04:15.462Z</time>
      </trkpt>
      <trkpt lat="42.39958168505" lon="-8.68999242783">
        <ele>6.62274265289</ele>
        <time>2021-02-02T09:04:16.181Z</time>
      </trkpt>
      <trkpt lat="42.39978100689" lon="-8.68965121348">
        <ele>6.5097823143</ele>
        <time>2021-02-02T09:04:16.905Z</time>
      </trkpt>
      <trkpt lat="42.39979163941" lon="-8.68963301182">
        <ele>6.46049070358</ele>
        <time>2021-02-02T09:04:17.629Z</time>
      </trkpt>
      <trkpt lat="42.39979" lon="-8.68963">
        <ele>6.48903083801</ele>
        <time>2021-02-02T09:04:18.353Z</time>
      </trkpt>
      <trkpt lat="42.39998" lon="-8.68925">
        <ele>5.86120510101</ele>
        <time>2021-02-02T09:04:19.083Z</time>
      </trkpt>
      <trkpt lat="42.4004" lon="-8.68832">
        <ele>7.61755084991</ele>
        <time>2021-02-02T09:04:19.825Z</time>
      </trkpt>
      <trkpt lat="42.40072" lon="-8.68774">
        <ele>9.22099399567</ele>
        <time>2021-02-02T09:04:20.576Z</time>
      </trkpt>
      <trkpt lat="42.40088" lon="-8.68748">
        <ele>10.44282150269</ele>
        <time>2021-02-02T09:04:21.331Z</time>
      </trkpt>
      <trkpt lat="42.40146" lon="-8.68671">
        <ele>9.96712017059</ele>
        <time>2021-02-02T09:04:22.099Z</time>
      </trkpt>
      <trkpt lat="42.40218" lon="-8.68585">
        <ele>7.41421842575</ele>
        <time>2021-02-02T09:04:22.882Z</time>
      </trkpt>
      <trkpt lat="42.40258" lon="-8.68537">
        <ele>6.93585109711</ele>
        <time>2021-02-02T09:04:23.674Z</time>
      </trkpt>
      <trkpt lat="42.40313" lon="-8.68477">
        <ele>6.30846977234</ele>
        <time>2021-02-02T09:04:24.477Z</time>
      </trkpt>
      <trkpt lat="42.40338" lon="-8.6846">
        <ele>6.34446001053</ele>
        <time>2021-02-02T09:04:25.285Z</time>
      </trkpt>
      <trkpt lat="42.40369" lon="-8.68443">
        <ele>5.94856977463</ele>
        <time>2021-02-02T09:04:26.098Z</time>
      </trkpt>
      <trkpt lat="42.40398" lon="-8.68434">
        <ele>5.68086624146</ele>
        <time>2021-02-02T09:04:26.916Z</time>
      </trkpt>
      <trkpt lat="42.40501" lon="-8.68421">
        <ele>7.73807287216</ele>
        <time>2021-02-02T09:04:27.750Z</time>
      </trkpt>
      <trkpt lat="42.40518" lon="-8.68416">
        <ele>6.51441287994</ele>
        <time>2021-02-02T09:04:28.587Z</time>
      </trkpt>
      <trkpt lat="42.40522" lon="-8.68412">
        <ele>6.22649240494</ele>
        <time>2021-02-02T09:04:29.425Z</time>
      </trkpt>
      <trkpt lat="42.40549" lon="-8.684">
        <ele>5.92546510696</ele>
        <time>2021-02-02T09:04:30.268Z</time>
      </trkpt>
      <trkpt lat="42.4056" lon="-8.6839">
        <ele>5.88947534561</ele>
        <time>2021-02-02T09:04:31.113Z</time>
      </trkpt>
      <trkpt lat="42.406" lon="-8.68349">
        <ele>6.0</ele>
        <time>2021-02-02T09:04:31.966Z</time>
      </trkpt>
      <trkpt lat="42.40617" lon="-8.68328">
        <ele>5.31896686554</ele>
        <time>2021-02-02T09:04:32.822Z</time>
      </trkpt>
      <trkpt lat="42.40688652295" lon="-8.6823573543">
        <ele>2.11542987823</ele>
        <time>2021-02-02T09:04:33.694Z</time>
      </trkpt>
      <trkpt lat="42.4069" lon="-8.68234">
        <ele>2.06692576408</ele>
        <time>2021-02-02T09:04:34.567Z</time>
      </trkpt>
      <trkpt lat="42.40784" lon="-8.68114">
        <ele>1.07708966732</ele>
        <time>2021-02-02T09:04:35.460Z</time>
      </trkpt>
      <trkpt lat="42.41096" lon="-8.67718">
        <ele>3.46559286118</ele>
        <time>2021-02-02T09:04:36.422Z</time>
      </trkpt>
      <trkpt lat="42.41319" lon="-8.67435">
        <ele>4.74545955658</ele>
        <time>2021-02-02T09:04:37.433Z</time>
      </trkpt>
      <trkpt lat="42.4157" lon="-8.67114">
        <ele>0.2085531801</ele>
        <time>2021-02-02T09:04:38.499Z</time>
      </trkpt>
      <trkpt lat="42.41612991777" lon="-8.67054766914">
        <ele>0.0</ele>
        <time>2021-02-02T09:04:39.575Z</time>
      </trkpt>
      <trkpt lat="42.41615" lon="-8.67052">
        <ele>0.0</ele>
        <time>2021-02-02T09:04:40.651Z</time>
      </trkpt>
      <trkpt lat="42.41639" lon="-8.67017">
        <ele>0.0</ele>
        <time>2021-02-02T09:04:41.733Z</time>
      </trkpt>
      <trkpt lat="42.41685" lon="-8.66935">
        <ele>0.0</ele>
        <time>2021-02-02T09:04:42.827Z</time>
      </trkpt>
      <trkpt lat="42.41711" lon="-8.66887">
        <ele>0.0</ele>
        <time>2021-02-02T09:04:43.928Z</time>
      </trkpt>
      <trkpt lat="42.41751" lon="-8.66823">
        <ele>3.79544568062</ele>
        <time>2021-02-02T09:04:45.039Z</time>
      </trkpt>
      <trkpt lat="42.41783" lon="-8.66778">
        <ele>8.16600990295</ele>
        <time>2021-02-02T09:04:46.158Z</time>
      </trkpt>
      <trkpt lat="42.41803" lon="-8.66753">
        <ele>10.0</ele>
        <time>2021-02-02T09:04:47.281Z</time>
      </trkpt>
      <trkpt lat="42.41852" lon="-8.66699">
        <ele>2.74140524864</ele>
        <time>2021-02-02T09:04:48.414Z</time>
      </trkpt>
      <trkpt lat="42.41928" lon="-8.66621">
        <ele>1.60733127594</ele>
        <time>2021-02-02T09:04:49.562Z</time>
      </trkpt>
      <trkpt lat="42.41999" lon="-8.66548">
        <ele>0.83088028431</ele>
        <time>2021-02-02T09:04:50.725Z</time>
      </trkpt>
      <trkpt lat="42.42055" lon="-8.66488">
        <ele>0.0</ele>
        <time>2021-02-02T09:04:51.899Z</time>
      </trkpt>
      <trkpt lat="42.42078" lon="-8.66457">
        <ele>0.0</ele>
        <time>2021-02-02T09:04:53.078Z</time>
      </trkpt>
      <trkpt lat="42.42101" lon="-8.6642">
        <ele>0.0</ele>
        <time>2021-02-02T09:04:54.263Z</time>
      </trkpt>
      <trkpt lat="42.42114" lon="-8.66393">
        <ele>0.0</ele>
        <time>2021-02-02T09:04:55.452Z</time>
      </trkpt>
      <trkpt lat="42.42118127639" lon="-8.66383368849">
        <ele>0.0</ele>
        <time>2021-02-02T09:04:56.642Z</time>
      </trkpt>
      <trkpt lat="42.4212" lon="-8.66379">
        <ele>0.0</ele>
        <time>2021-02-02T09:04:57.833Z</time>
      </trkpt>
      <trkpt lat="42.42134" lon="-8.66336">
        <ele>0.0</ele>
        <time>2021-02-02T09:04:59.029Z</time>
      </trkpt>
      <trkpt lat="42.42159" lon="-8.66234">
        <ele>4.14984703064</ele>
        <time>2021-02-02T09:05:00.238Z</time>
      </trkpt>
      <trkpt lat="42.42189" lon="-8.66094">
        <ele>0.0</ele>
        <time>2021-02-02T09:05:01.464Z</time>
      </trkpt>
      <trkpt lat="42.4221" lon="-8.65992">
        <ele>0.0</ele>
        <time>2021-02-02T09:05:02.703Z</time>
      </trkpt>
      <trkpt lat="42.42225" lon="-8.65907">
        <ele>0.0</ele>
        <time>2021-02-02T09:05:03.952Z</time>
      </trkpt>
      <trkpt lat="42.4223" lon="-8.65851">
        <ele>2.40449881554</ele>
        <time>2021-02-02T09:05:05.208Z</time>
      </trkpt>
      <trkpt lat="42.42237" lon="-8.65818">
        <ele>1.17117464542</ele>
        <time>2021-02-02T09:05:06.468Z</time>
      </trkpt>
      <trkpt lat="42.42249" lon="-8.65777">
        <ele>2.06126070023</ele>
        <time>2021-02-02T09:05:07.733Z</time>
      </trkpt>
      <trkpt lat="42.42256" lon="-8.65758">
        <ele>1.98928070068</ele>
        <time>2021-02-02T09:05:09.001Z</time>
      </trkpt>
      <trkpt lat="42.422575555" lon="-8.65754500129">
        <ele>1.94729375839</ele>
        <time>2021-02-02T09:05:10.269Z</time>
      </trkpt>
      <trkpt lat="42.4226" lon="-8.65749">
        <ele>1.6878644228</ele>
        <time>2021-02-02T09:05:11.538Z</time>
      </trkpt>
      <trkpt lat="42.42283" lon="-8.65699">
        <ele>0.0</ele>
        <time>2021-02-02T09:05:12.814Z</time>
      </trkpt>
      <trkpt lat="42.42305" lon="-8.65652">
        <ele>0.0</ele>
        <time>2021-02-02T09:05:14.096Z</time>
      </trkpt>
      <trkpt lat="42.42329" lon="-8.6561">
        <ele>1.02216053009</ele>
        <time>2021-02-02T09:05:15.385Z</time>
      </trkpt>
      <trkpt lat="42.42358" lon="-8.65569">
        <ele>0.1424048841</ele>
        <time>2021-02-02T09:05:16.680Z</time>
      </trkpt>
      <trkpt lat="42.42393" lon="-8.6553">
        <ele>0.0</ele>
        <time>2021-02-02T09:05:17.983Z</time>
      </trkpt>
      <trkpt lat="42.42428" lon="-8.65495">
        <ele>0.0</ele>
        <time>2021-02-02T09:05:19.293Z</time>
      </trkpt>
      <trkpt lat="42.42548" lon="-8.65367">
        <ele>6.08075523376</ele>
        <time>2021-02-02T09:05:20.627Z</time>
      </trkpt>
      <trkpt lat="42.42604801304" lon="-8.65310198745">
        <ele>3.44556951523</ele>
        <time>2021-02-02T09:05:21.972Z</time>
      </trkpt>
      <trkpt lat="42.42609" lon="-8.65306">
        <ele>3.14334917068</ele>
        <time>2021-02-02T09:05:23.318Z</time>
      </trkpt>
      <trkpt lat="42.42665" lon="-8.65252">
        <ele>5.32191038132</ele>
        <time>2021-02-02T09:05:24.675Z</time>
      </trkpt>
      <trkpt lat="42.4269" lon="-8.65234">
        <ele>7.91319084167</ele>
        <time>2021-02-02T09:05:26.037Z</time>
      </trkpt>
      <trkpt lat="42.42692" lon="-8.65228">
        <ele>8.77695083618</ele>
        <time>2021-02-02T09:05:27.400Z</time>
      </trkpt>
      <trkpt lat="42.42697" lon="-8.65222">
        <ele>8.8349905014</ele>
        <time>2021-02-02T09:05:28.764Z</time>
      </trkpt>
      <trkpt lat="42.42702" lon="-8.65221">
        <ele>8.65504074097</ele>
        <time>2021-02-02T09:05:30.128Z</time>
      </trkpt>
      <trkpt lat="42.42706" lon="-8.65222">
        <ele>8.51107978821</ele>
        <time>2021-02-02T09:05:31.493Z</time>
      </trkpt>
      <trkpt lat="42.42707" lon="-8.65222">
        <ele>8.47509002686</ele>
        <time>2021-02-02T09:05:32.858Z</time>
      </trkpt>
      <trkpt lat="42.42716" lon="-8.65215">
        <ele>8.15118026733</ele>
        <time>2021-02-02T09:05:34.225Z</time>
      </trkpt>
      <trkpt lat="42.42729" lon="-8.65204">
        <ele>8.31668949127</ele>
        <time>2021-02-02T09:05:35.594Z</time>
      </trkpt>
      <trkpt lat="42.4275" lon="-8.6519">
        <ele>9.14495944977</ele>
        <time>2021-02-02T09:05:36.967Z</time>
      </trkpt>
      <trkpt lat="42.42769" lon="-8.65177">
        <ele>10.51257991791</ele>
        <time>2021-02-02T09:05:38.344Z</time>
      </trkpt>
      <trkpt lat="42.42784" lon="-8.65171">
        <ele>10.95234680176</ele>
        <time>2021-02-02T09:05:39.723Z</time>
      </trkpt>
      <trkpt lat="42.42796" lon="-8.65169">
        <ele>11.13529586792</ele>
        <time>2021-02-02T09:05:41.104Z</time>
      </trkpt>
      <trkpt lat="42.42816" lon="-8.6517">
        <ele>10.16767597198</ele>
        <time>2021-02-02T09:05:42.488Z</time>
      </trkpt>
      <trkpt lat="42.42821134378" lon="-8.65171711458">
        <ele>9.40547466278</ele>
        <time>2021-02-02T09:05:43.873Z</time>
      </trkpt>
      <trkpt lat="42.42825" lon="-8.65173">
        <ele>8.61710643768</ele>
        <time>2021-02-02T09:05:45.259Z</time>
      </trkpt>
      <trkpt lat="42.42881" lon="-8.65191">
        <ele>6.06303787231</ele>
        <time>2021-02-02T09:05:46.654Z</time>
      </trkpt>
      <trkpt lat="42.42884" lon="-8.6519">
        <ele>6.2069978714</ele>
        <time>2021-02-02T09:05:48.049Z</time>
      </trkpt>
      <trkpt lat="42.42886" lon="-8.65191">
        <ele>6.24298810959</ele>
        <time>2021-02-02T09:05:49.445Z</time>
      </trkpt>
      <trkpt lat="42.42892" lon="-8.65201">
        <ele>6.18306016922</ele>
        <time>2021-02-02T09:05:50.842Z</time>
      </trkpt>
      <trkpt lat="42.42893" lon="-8.65206">
        <ele>6.21905040741</ele>
        <time>2021-02-02T09:05:52.240Z</time>
      </trkpt>
      <trkpt lat="42.42898" lon="-8.65217">
        <ele>6.39900016785</ele>
        <time>2021-02-02T09:05:53.639Z</time>
      </trkpt>
      <trkpt lat="42.42898841439" lon="-8.65240560155">
        <ele>6.42928361893</ele>
        <time>2021-02-02T09:05:55.041Z</time>
      </trkpt>
      <trkpt lat="42.42899" lon="-8.65245">
        <ele>6.43499040604</ele>
        <time>2021-02-02T09:05:56.444Z</time>
      </trkpt>
      <trkpt lat="42.42901841323" lon="-8.65312244376">
        <ele>5.53724956512</ele>
        <time>2021-02-02T09:05:57.855Z</time>
      </trkpt>
      <trkpt lat="42.42902" lon="-8.65316">
        <ele>5.54296016693</ele>
        <time>2021-02-02T09:05:59.266Z</time>
      </trkpt>
      <trkpt lat="42.42904" lon="-8.65333">
        <ele>5.16528749466</ele>
        <time>2021-02-02T09:06:00.679Z</time>
      </trkpt>
      <trkpt lat="42.4291" lon="-8.65354">
        <ele>5.1691198349</ele>
        <time>2021-02-02T09:06:02.095Z</time>
      </trkpt>
      <trkpt lat="42.42922" lon="-8.65374">
        <ele>5.31030273438</ele>
        <time>2021-02-02T09:06:03.514Z</time>
      </trkpt>
      <trkpt lat="42.42939" lon="-8.65388">
        <ele>5.12540960312</ele>
        <time>2021-02-02T09:06:04.936Z</time>
      </trkpt>
      <trkpt lat="42.42946411757" lon="-8.65391705877">
        <ele>5.2987279892</ele>
        <time>2021-02-02T09:06:06.359Z</time>
      </trkpt>
      <trkpt lat="42.42949" lon="-8.65393">
        <ele>5.25215196609</ele>
        <time>2021-02-02T09:06:07.783Z</time>
      </trkpt>
      <trkpt lat="42.42965" lon="-8.65397">
        <ele>5.67225790024</ele>
        <time>2021-02-02T09:06:09.209Z</time>
      </trkpt>
      <trkpt lat="42.42989" lon="-8.65391">
        <ele>7.65965032578</ele>
        <time>2021-02-02T09:06:10.639Z</time>
      </trkpt>
      <trkpt lat="42.43204" lon="-8.65293">
        <ele>9.99077987671</ele>
        <time>2021-02-02T09:06:12.106Z</time>
      </trkpt>
      <trkpt lat="42.43219278826" lon="-8.65287058237">
        <ele>8.53088092804</ele>
        <time>2021-02-02T09:06:13.575Z</time>
      </trkpt>
      <trkpt lat="42.43222" lon="-8.65286">
        <ele>8.44865322113</ele>
        <time>2021-02-02T09:06:15.045Z</time>
      </trkpt>
      <trkpt lat="42.43242" lon="-8.6527">
        <ele>9.30619239807</ele>
        <time>2021-02-02T09:06:16.518Z</time>
      </trkpt>
      <trkpt lat="42.43287" lon="-8.65212">
        <ele>11.48386573792</ele>
        <time>2021-02-02T09:06:18.001Z</time>
      </trkpt>
      <trkpt lat="42.43294341454" lon="-8.65201395682">
        <ele>11.95358753204</ele>
        <time>2021-02-02T09:06:19.486Z</time>
      </trkpt>
      <trkpt lat="42.43296" lon="-8.65199">
        <ele>12.05970573425</ele>
        <time>2021-02-02T09:06:20.971Z</time>
      </trkpt>
      <trkpt lat="42.43300585956" lon="-8.65208667331">
        <ele>9.75975322723</ele>
        <time>2021-02-02T09:06:22.458Z</time>
      </trkpt>
      <trkpt lat="42.43301895176" lon="-8.65211427212">
        <ele>9.0275182724</ele>
        <time>2021-02-02T09:06:23.945Z</time>
      </trkpt>
      <trkpt lat="42.43302" lon="-8.65211">
        <ele>9.08553218842</ele>
        <time>2021-02-02T09:06:25.432Z</time>
      </trkpt>
      <trkpt lat="42.43247" lon="-8.6528">
        <ele>8.22649288177</ele>
        <time>2021-02-02T09:06:26.931Z</time>
      </trkpt>
      <trkpt lat="42.43224" lon="-8.65297">
        <ele>4.34579277039</ele>
        <time>2021-02-02T09:06:28.434Z</time>
      </trkpt>
      <trkpt lat="42.43138431548" lon="-8.65335894767">
        <ele>7.08802175522</ele>
        <time>2021-02-02T09:06:29.952Z</time>
      </trkpt>
      <trkpt lat="42.43136" lon="-8.65337">
        <ele>7.22682571411</ele>
        <time>2021-02-02T09:06:31.470Z</time>
      </trkpt>
      <trkpt lat="42.43073453421" lon="-8.65364905409">
        <ele>7.65791988373</ele>
        <time>2021-02-02T09:06:32.999Z</time>
      </trkpt>
      <trkpt lat="42.43071" lon="-8.65366">
        <ele>7.54801464081</ele>
        <time>2021-02-02T09:06:34.528Z</time>
      </trkpt>
      <trkpt lat="42.43044370131" lon="-8.65377937532">
        <ele>7.26383781433</ele>
        <time>2021-02-02T09:06:36.062Z</time>
      </trkpt>
      <trkpt lat="42.43042" lon="-8.65379">
        <ele>7.51680088043</ele>
        <time>2021-02-02T09:06:37.596Z</time>
      </trkpt>
      <trkpt lat="42.43045714854" lon="-8.65377761716">
        <ele>6.98201036453</ele>
        <time>2021-02-02T09:06:39.131Z</time>
      </trkpt>
      <trkpt lat="42.43042415007999" lon="-8.653798112649982">
        <ele>7.149471282958984</ele>
        <time>2021-02-17T16:19:52.000Z</time>
      </trkpt>
      <trkpt lat="42.43005760945" lon="-8.65396499634">
        <ele>6.762166500091553</ele>
        <time>2021-02-17T16:19:52.006Z</time>
      </trkpt>
      <trkpt lat="42.43005752563" lon="-8.65396499634">
        <ele>6.762467861175537</ele>
        <time>2021-02-17T16:19:52.012Z</time>
      </trkpt>
      <trkpt lat="42.42970347404" lon="-8.6540722847">
        <ele>4.993176460266113</ele>
        <time>2021-02-17T16:19:52.024Z</time>
      </trkpt>
      <trkpt lat="42.42943525314" lon="-8.65405082703">
        <ele>4.608487129211426</ele>
        <time>2021-02-17T16:19:52.040Z</time>
      </trkpt>
      <trkpt lat="42.42920994759" lon="-8.65392208099">
        <ele>5.773418426513672</ele>
        <time>2021-02-17T16:19:52.060Z</time>
      </trkpt>
      <trkpt lat="42.42895253934" lon="-8.65347146988">
        <ele>5.343862533569336</ele>
        <time>2021-02-17T16:19:52.087Z</time>
      </trkpt>
      <trkpt lat="42.42895245552" lon="-8.65347146988">
        <ele>5.343862533569336</ele>
        <time>2021-02-17T16:19:52.114Z</time>
      </trkpt>
      <trkpt lat="42.4289418105" lon="-8.65338563919">
        <ele>5.0349578857421875</ele>
        <time>2021-02-17T16:19:52.142Z</time>
      </trkpt>
      <trkpt lat="42.428909624" lon="-8.65302085876">
        <ele>5.291434288024902</ele>
        <time>2021-02-17T16:19:52.174Z</time>
      </trkpt>
      <trkpt lat="42.42887743749" lon="-8.65239858627">
        <ele>6.029877662658691</ele>
        <time>2021-02-17T16:19:52.214Z</time>
      </trkpt>
      <trkpt lat="42.42885597982" lon="-8.65216255188">
        <ele>5.905303001403809</ele>
        <time>2021-02-17T16:19:52.257Z</time>
      </trkpt>
      <trkpt lat="42.42874860764" lon="-8.6521089077">
        <ele>5.1324381828308105</ele>
        <time>2021-02-17T16:19:52.301Z</time>
      </trkpt>
      <trkpt lat="42.42857703008" lon="-8.65193724632">
        <ele>5.584713459014893</ele>
        <time>2021-02-17T16:19:52.349Z</time>
      </trkpt>
      <trkpt lat="42.42850192823" lon="-8.65191578865">
        <ele>6.086683750152588</ele>
        <time>2021-02-17T16:19:52.398Z</time>
      </trkpt>
      <trkpt lat="42.42835172452" lon="-8.65186214447">
        <ele>7.206462860107422</ele>
        <time>2021-02-17T16:19:52.450Z</time>
      </trkpt>
      <trkpt lat="42.4283516407" lon="-8.65186214447">
        <ele>7.2067646980285645</ele>
        <time>2021-02-17T16:19:52.502Z</time>
      </trkpt>
      <trkpt lat="42.42825671917622" lon="-8.651857962906579">
        <ele>6.16492223739624</ele>
        <time>2021-02-17T16:19:52.555Z</time>
      </trkpt>
      <trkpt lat="42.4282565061" lon="-8.65185795352">
        <ele>6.160422325134277</ele>
        <time>2021-02-17T16:19:52.608Z</time>
      </trkpt>
      <trkpt lat="42.42825658992" lon="-8.65185795352">
        <ele>6.162232398986816</ele>
        <time>2021-02-17T16:19:52.661Z</time>
      </trkpt>
      <trkpt lat="42.42811560631" lon="-8.65185141563">
        <ele>4.7777485847473145</ele>
        <time>2021-02-17T16:19:52.716Z</time>
      </trkpt>
      <trkpt lat="42.4270964507" lon="-8.65251660347">
        <ele>2.641084909439087</ele>
        <time>2021-02-17T16:19:52.789Z</time>
      </trkpt>
      <trkpt lat="42.42702126503" lon="-8.65255951881">
        <ele>2.9436843395233154</ele>
        <time>2021-02-17T16:19:52.864Z</time>
      </trkpt>
      <trkpt lat="42.42600210942" lon="-8.65331053734">
        <ele>2.2981443405151367</ele>
        <time>2021-02-17T16:19:52.957Z</time>
      </trkpt>
      <trkpt lat="42.4260020256" lon="-8.65331053734">
        <ele>2.299652576446533</ele>
        <time>2021-02-17T16:19:53.050Z</time>
      </trkpt>
      <trkpt lat="42.42504724301" lon="-8.65423321724">
        <ele>2.678406238555908</ele>
        <time>2021-02-17T16:19:53.162Z</time>
      </trkpt>
      <trkpt lat="42.42400654592" lon="-8.65531682968">
        <ele>0.0</ele>
        <time>2021-02-17T16:19:53.295Z</time>
      </trkpt>
      <trkpt lat="42.42343791761" lon="-8.65602493286">
        <ele>0.0527163669466972</ele>
        <time>2021-02-17T16:19:53.440Z</time>
      </trkpt>
      <trkpt lat="42.42297649384" lon="-8.6568403244">
        <ele>0.0</ele>
        <time>2021-02-17T16:19:53.598Z</time>
      </trkpt>
      <trkpt lat="42.42262252606" lon="-8.65782737732">
        <ele>0.9215508103370667</ele>
        <time>2021-02-17T16:19:53.769Z</time>
      </trkpt>
      <trkpt lat="42.42252596654" lon="-8.6582672596">
        <ele>0.0</ele>
        <time>2021-02-17T16:19:53.945Z</time>
      </trkpt>
      <trkpt lat="42.42249369621" lon="-8.6584174633">
        <ele>0.0</ele>
        <time>2021-02-17T16:19:54.123Z</time>
      </trkpt>
      <trkpt lat="42.42146372795" lon="-8.66320252419">
        <ele>0.0</ele>
        <time>2021-02-17T16:19:54.360Z</time>
      </trkpt>
      <trkpt lat="42.42119550705" lon="-8.66399645805">
        <ele>0.0</ele>
        <time>2021-02-17T16:19:54.607Z</time>
      </trkpt>
      <trkpt lat="42.42068060674" lon="-8.66485476494">
        <ele>0.0</ele>
        <time>2021-02-17T16:19:54.867Z</time>
      </trkpt>
      <trkpt lat="42.42068052292" lon="-8.66485476494">
        <ele>0.0</ele>
        <time>2021-02-17T16:19:55.127Z</time>
      </trkpt>
      <trkpt lat="42.41839528084" lon="-8.66725802422">
        <ele>7.649476051330566</ele>
        <time>2021-02-17T16:19:55.434Z</time>
      </trkpt>
      <trkpt lat="42.41771936417" lon="-8.66807341576">
        <ele>2.085850954055786</ele>
        <time>2021-02-17T16:19:55.755Z</time>
      </trkpt>
      <trkpt lat="42.41731463590022" lon="-8.668754476307686">
        <ele>0.0</ele>
        <time>2021-02-17T16:19:56.087Z</time>
      </trkpt>
      <trkpt lat="42.41731485352" lon="-8.66875411011">
        <ele>0.0</ele>
        <time>2021-02-17T16:19:56.419Z</time>
      </trkpt>
      <trkpt lat="42.41731493734" lon="-8.66875402629">
        <ele>0.0</ele>
        <time>2021-02-17T16:19:56.751Z</time>
      </trkpt>
      <trkpt lat="42.41639980115" lon="-8.67029428482">
        <ele>0.0</ele>
        <time>2021-02-17T16:19:57.106Z</time>
      </trkpt>
      <trkpt lat="42.41639971733" lon="-8.67029428482">
        <ele>0.0</ele>
        <time>2021-02-17T16:19:57.461Z</time>
      </trkpt>
      <trkpt lat="42.41595983505" lon="-8.67093801498">
        <ele>0.460576981306076</ele>
        <time>2021-02-17T16:19:57.826Z</time>
      </trkpt>
      <trkpt lat="42.40583181381" lon="-8.6838555336">
        <ele>5.3038835525512695</ele>
        <time>2021-02-17T16:19:58.414Z</time>
      </trkpt>
      <trkpt lat="42.40547776222" lon="-8.68414521217">
        <ele>5.446890354156494</ele>
        <time>2021-02-17T16:19:59.009Z</time>
      </trkpt>
      <trkpt lat="42.40513443947" lon="-8.68430614471">
        <ele>6.842357158660889</ele>
        <time>2021-02-17T16:19:59.610Z</time>
      </trkpt>
      <trkpt lat="42.40417957306" lon="-8.68441343307">
        <ele>5.876520156860352</ele>
        <time>2021-02-17T16:20:00.226Z</time>
      </trkpt>
      <trkpt lat="42.40363240242" lon="-8.68457436562">
        <ele>4.804441452026367</ele>
        <time>2021-02-17T16:20:00.851Z</time>
      </trkpt>
      <trkpt lat="42.40313887596" lon="-8.68490695953">
        <ele>5.24602746963501</ele>
        <time>2021-02-17T16:20:01.485Z</time>
      </trkpt>
      <trkpt lat="42.4029135704" lon="-8.68514299393">
        <ele>5.49848747253418</ele>
        <time>2021-02-17T16:20:02.123Z</time>
      </trkpt>
      <trkpt lat="42.40166910924" lon="-8.68658065796">
        <ele>8.389062881469727</ele>
        <time>2021-02-17T16:20:02.788Z</time>
      </trkpt>
      <trkpt lat="42.40097165108" lon="-8.68746042252">
        <ele>9.004938125610352</ele>
        <time>2021-02-17T16:20:03.468Z</time>
      </trkpt>
      <trkpt lat="42.40066051483" lon="-8.68797540665">
        <ele>6.999293804168701</ele>
        <time>2021-02-17T16:20:04.156Z</time>
      </trkpt>
      <trkpt lat="42.40011342801" lon="-8.68917703629">
        <ele>5.643594264984131</ele>
        <time>2021-02-17T16:20:04.860Z</time>
      </trkpt>
      <trkpt lat="42.40011334419" lon="-8.68917703629">
        <ele>5.643895626068115</ele>
        <time>2021-02-17T16:20:05.564Z</time>
      </trkpt>
      <trkpt lat="42.39978075027" lon="-8.68983149529">
        <ele>6.485503196716309</ele>
        <time>2021-02-17T16:20:06.278Z</time>
      </trkpt>
      <trkpt lat="42.39955544472" lon="-8.69012117386">
        <ele>6.253824710845947</ele>
        <time>2021-02-17T16:20:06.997Z</time>
      </trkpt>
      <trkpt lat="42.39925103767087" lon="-8.690414545000998">
        <ele>5.697999477386475</ele>
        <time>2021-02-17T16:20:07.722Z</time>
      </trkpt>
      <trkpt lat="42.39925025962" lon="-8.69041529484">
        <ele>5.695301055908203</ele>
        <time>2021-02-17T16:20:08.447Z</time>
      </trkpt>
      <trkpt lat="42.39925025962" lon="-8.69041521102">
        <ele>5.695602893829346</ele>
        <time>2021-02-17T16:20:09.172Z</time>
      </trkpt>
      <trkpt lat="42.39866495132" lon="-8.69097948074">
        <ele>5.040072441101074</ele>
        <time>2021-02-17T16:20:09.908Z</time>
      </trkpt>
      <trkpt lat="42.39775308408" lon="-8.6917090416">
        <ele>7.012463569641113</ele>
        <time>2021-02-17T16:20:10.661Z</time>
      </trkpt>
      <trkpt lat="42.39775300026" lon="-8.6917090416">
        <ele>7.01306676864624</ele>
        <time>2021-02-17T16:20:11.414Z</time>
      </trkpt>
      <trkpt lat="42.39663720131" lon="-8.69244933128">
        <ele>11.127151489257812</ele>
        <time>2021-02-17T16:20:12.187Z</time>
      </trkpt>
      <trkpt lat="42.39645489492" lon="-8.69257807732">
        <ele>10.304646492004395</ele>
        <time>2021-02-17T16:20:12.963Z</time>
      </trkpt>
      <trkpt lat="42.3950278759" lon="-8.69357585907">
        <ele>10.024970054626465</ele>
        <time>2021-02-17T16:20:13.765Z</time>
      </trkpt>
      <trkpt lat="42.39502795972" lon="-8.69357585907">
        <ele>10.024065017700195</ele>
        <time>2021-02-17T16:20:14.567Z</time>
      </trkpt>
      <trkpt lat="42.39416956902" lon="-8.69456291199">
        <ele>5.303552627563477</ele>
        <time>2021-02-17T16:20:15.387Z</time>
      </trkpt>
      <trkpt lat="42.3930644989" lon="-8.69615077972">
        <ele>7.77508544921875</ele>
        <time>2021-02-17T16:20:16.233Z</time>
      </trkpt>
      <trkpt lat="42.39283927716" lon="-8.69698762894">
        <ele>7.671471118927002</ele>
        <time>2021-02-17T16:20:17.090Z</time>
      </trkpt>
      <trkpt lat="42.392796278" lon="-8.69764208794">
        <ele>9.79260540008545</ele>
        <time>2021-02-17T16:20:17.954Z</time>
      </trkpt>
      <trkpt lat="42.39279636182" lon="-8.69764208794">
        <ele>9.79170036315918</ele>
        <time>2021-02-17T16:20:18.818Z</time>
      </trkpt>
      <trkpt lat="42.39280709065" lon="-8.69785666466">
        <ele>10.275740623474121</ele>
        <time>2021-02-17T16:20:19.685Z</time>
      </trkpt>
      <trkpt lat="42.39301093854" lon="-8.69927287102">
        <ele>7.344103813171387</ele>
        <time>2021-02-17T16:20:20.569Z</time>
      </trkpt>
      <trkpt lat="42.39339717664" lon="-8.70200872421">
        <ele>6.663590908050537</ele>
        <time>2021-02-17T16:20:21.486Z</time>
      </trkpt>
      <trkpt lat="42.39344000816" lon="-8.70226621628">
        <ele>6.5094404220581055</ele>
        <time>2021-02-17T16:20:22.406Z</time>
      </trkpt>
      <trkpt lat="42.39353665151" lon="-8.70254516602">
        <ele>6.484862327575684</ele>
        <time>2021-02-17T16:20:23.330Z</time>
      </trkpt>
      <trkpt lat="42.39354738034" lon="-8.70258808136">
        <ele>6.369023323059082</ele>
        <time>2021-02-17T16:20:24.254Z</time>
      </trkpt>
      <trkpt lat="42.39356883802" lon="-8.70266318321">
        <ele>6.1373443603515625</ele>
        <time>2021-02-17T16:20:25.179Z</time>
      </trkpt>
      <trkpt lat="42.39359021187" lon="-8.70270609856">
        <ele>5.937714099884033</ele>
        <time>2021-02-17T16:20:26.105Z</time>
      </trkpt>
      <trkpt lat="42.39359029569" lon="-8.7027490139">
        <ele>5.937110900878906</ele>
        <time>2021-02-17T16:20:27.031Z</time>
      </trkpt>
      <trkpt lat="42.39357956685" lon="-8.70280265808">
        <ele>6.021505355834961</ele>
        <time>2021-02-17T16:20:27.958Z</time>
      </trkpt>
      <trkpt lat="42.39352583885" lon="-8.70289921761">
        <ele>6.802142143249512</ele>
        <time>2021-02-17T16:20:28.887Z</time>
      </trkpt>
      <trkpt lat="42.393504465" lon="-8.70312452316">
        <ele>7.064624786376953</ele>
        <time>2021-02-17T16:20:29.818Z</time>
      </trkpt>
      <trkpt lat="42.39350438118" lon="-8.70312452316">
        <ele>7.065831661224365</ele>
        <time>2021-02-17T16:20:30.749Z</time>
      </trkpt>
      <trkpt lat="42.39353665151" lon="-8.70337128639">
        <ele>5.7131667137146</ele>
        <time>2021-02-17T16:20:31.683Z</time>
      </trkpt>
      <trkpt lat="42.39355802536" lon="-8.70347857475">
        <ele>4.699891090393066</ele>
        <time>2021-02-17T16:20:32.619Z</time>
      </trkpt>
      <trkpt lat="42.39374049939" lon="-8.70451927185">
        <ele>5.194748401641846</ele>
        <time>2021-02-17T16:20:33.567Z</time>
      </trkpt>
      <trkpt lat="42.39379414357" lon="-8.7048625946">
        <ele>8.43704605102539</ele>
        <time>2021-02-17T16:20:34.519Z</time>
      </trkpt>
      <trkpt lat="42.39384778775" lon="-8.70506644249">
        <ele>11.144392013549805</ele>
        <time>2021-02-17T16:20:35.474Z</time>
      </trkpt>
      <trkpt lat="42.39381551743" lon="-8.70525956154">
        <ele>12.774402618408203</ele>
        <time>2021-02-17T16:20:36.431Z</time>
      </trkpt>
      <trkpt lat="42.39348292351" lon="-8.70552778244">
        <ele>16.04953384399414</ele>
        <time>2021-02-17T16:20:37.395Z</time>
      </trkpt>
      <trkpt lat="42.39298948087" lon="-8.7062895298">
        <ele>21.264814376831055</ele>
        <time>2021-02-17T16:20:38.371Z</time>
      </trkpt>
      <trkpt lat="42.39295721054" lon="-8.70633244514">
        <ele>21.922142028808594</ele>
        <time>2021-02-17T16:20:39.347Z</time>
      </trkpt>
      <trkpt lat="42.39404082298" lon="-8.70716929436">
        <ele>22.6436710357666</ele>
        <time>2021-02-17T16:20:40.343Z</time>
      </trkpt>
      <trkpt lat="42.39414811134" lon="-8.70750188828">
        <ele>21.84390640258789</ele>
        <time>2021-02-17T16:20:41.344Z</time>
      </trkpt>
      <trkpt lat="42.39409455098" lon="-8.70794177055">
        <ele>23.076183319091797</ele>
        <time>2021-02-17T16:20:42.350Z</time>
      </trkpt>
      <trkpt lat="42.39409446716" lon="-8.70794177055">
        <ele>23.07829475402832</ele>
        <time>2021-02-17T16:20:43.356Z</time>
      </trkpt>
      <trkpt lat="42.39401944913" lon="-8.70829582214">
        <ele>24.77688217163086</ele>
        <time>2021-02-17T16:20:44.366Z</time>
      </trkpt>
      <trkpt lat="42.39401936531" lon="-8.70829582214">
        <ele>24.778390884399414</ele>
        <time>2021-02-17T16:20:45.376Z</time>
      </trkpt>
      <trkpt lat="42.39400628635025" lon="-8.708387457621033">
        <ele>25.343542098999023</ele>
        <time>2021-02-17T16:20:46.387Z</time>
      </trkpt>
      <trkpt lat="42.3940061219" lon="-8.70838860981">
        <ele>25.350648880004883</ele>
        <time>2021-02-17T16:20:47.398Z</time>
      </trkpt>
      <trkpt lat="42.39400620572" lon="-8.70838835835">
        <ele>25.348234176635742</ele>
        <time>2021-02-17T16:20:48.409Z</time>
      </trkpt>
      <trkpt lat="42.39399799146" lon="-8.70844602585">
        <ele>25.506290435791016</ele>
        <time>2021-02-17T16:20:49.421Z</time>
      </trkpt>
      <trkpt lat="42.39399790764" lon="-8.70844602585">
        <ele>25.50779914855957</ele>
        <time>2021-02-17T16:20:50.433Z</time>
      </trkpt>
      <trkpt lat="42.39395507611" lon="-8.70860695839">
        <ele>26.52013397216797</ele>
        <time>2021-02-17T16:20:51.447Z</time>
      </trkpt>
      <trkpt lat="42.39395499229" lon="-8.70860695839">
        <ele>26.521038055419922</ele>
        <time>2021-02-17T16:20:52.461Z</time>
      </trkpt>
      <trkpt lat="42.39386924542" lon="-8.70899319649">
        <ele>28.929229736328125</ele>
        <time>2021-02-17T16:20:53.480Z</time>
      </trkpt>
      <trkpt lat="42.39370822906" lon="-8.70941162109">
        <ele>29.70311737060547</ele>
        <time>2021-02-17T16:20:54.504Z</time>
      </trkpt>
      <trkpt lat="42.39353656769" lon="-8.70964765549">
        <ele>28.155820846557617</ele>
        <time>2021-02-17T16:20:55.532Z</time>
      </trkpt>
      <trkpt lat="42.39283919334" lon="-8.70992660522">
        <ele>31.85985565185547</ele>
        <time>2021-02-17T16:20:56.572Z</time>
      </trkpt>
      <trkpt lat="42.39266753197" lon="-8.71014118195">
        <ele>31.71172332763672</ele>
        <time>2021-02-17T16:20:57.616Z</time>
      </trkpt>
      <trkpt lat="42.3918735981" lon="-8.71252298355">
        <ele>55.12392044067383</ele>
        <time>2021-02-17T16:20:58.691Z</time>
      </trkpt>
      <trkpt lat="42.39172339439" lon="-8.71275901794">
        <ele>53.9033088684082</ele>
        <time>2021-02-17T16:20:59.769Z</time>
      </trkpt>
      <trkpt lat="42.39144444466" lon="-8.71287703514">
        <ele>52.296966552734375</ele>
        <time>2021-02-17T16:21:00.852Z</time>
      </trkpt>
      <trkpt lat="42.39083298482" lon="-8.7127161026">
        <ele>48.235836029052734</ele>
        <time>2021-02-17T16:21:01.945Z</time>
      </trkpt>
      <trkpt lat="42.38812931813" lon="-8.71171832085">
        <ele>58.05141067504883</ele>
        <time>2021-02-17T16:21:03.083Z</time>
      </trkpt>
      <trkpt lat="42.38775372505" lon="-8.71175050735">
        <ele>57.81972885131836</ele>
        <time>2021-02-17T16:21:04.227Z</time>
      </trkpt>
      <trkpt lat="42.38663800992" lon="-8.71264100075">
        <ele>64.26451873779297</ele>
        <time>2021-02-17T16:21:05.392Z</time>
      </trkpt>
      <trkpt lat="42.3863697052" lon="-8.71284484863">
        <ele>65.92679595947266</ele>
        <time>2021-02-17T16:21:06.561Z</time>
      </trkpt>
      <trkpt lat="42.38579034805" lon="-8.71324181557">
        <ele>66.46150970458984</ele>
        <time>2021-02-17T16:21:07.741Z</time>
      </trkpt>
      <trkpt lat="42.3841918353" lon="-8.71387481689">
        <ele>56.761314392089844</ele>
        <time>2021-02-17T16:21:08.948Z</time>
      </trkpt>
      <trkpt lat="42.38419175148" lon="-8.71387481689">
        <ele>56.76252365112305</ele>
        <time>2021-02-17T16:21:10.155Z</time>
      </trkpt>
      <trkpt lat="42.38382697105" lon="-8.71407866478">
        <ele>56.9293098449707</ele>
        <time>2021-02-17T16:21:11.368Z</time>
      </trkpt>
      <trkpt lat="42.38261461258" lon="-8.71523737907">
        <ele>49.56340026855469</ele>
        <time>2021-02-17T16:21:12.605Z</time>
      </trkpt>
      <trkpt lat="42.38147735596" lon="-8.71606349945">
        <ele>47.31520080566406</ele>
        <time>2021-02-17T16:21:13.862Z</time>
      </trkpt>
      <trkpt lat="42.38083362579" lon="-8.71643900871">
        <ele>54.49456787109375</ele>
        <time>2021-02-17T16:21:15.130Z</time>
      </trkpt>
      <trkpt lat="42.38068342209" lon="-8.71657848358">
        <ele>58.69232177734375</ele>
        <time>2021-02-17T16:21:16.401Z</time>
      </trkpt>
      <trkpt lat="42.38058686256" lon="-8.71681451797">
        <ele>62.393592834472656</ele>
        <time>2021-02-17T16:21:17.676Z</time>
      </trkpt>
      <trkpt lat="42.38075852394" lon="-8.71747970581">
        <ele>65.6588134765625</ele>
        <time>2021-02-17T16:21:18.959Z</time>
      </trkpt>
      <trkpt lat="42.381036558075195" lon="-8.71809940126082">
        <ele>63.71731185913086</ele>
        <time>2021-02-17T16:21:20.251Z</time>
      </trkpt>
      <trkpt lat="42.38103688695" lon="-8.71810013428">
        <ele>63.71092224121094</ele>
        <time>2021-02-17T16:21:21.543Z</time>
      </trkpt>
      <trkpt lat="42.38103680313" lon="-8.71810005046">
        <ele>63.715145111083984</ele>
        <time>2021-02-17T16:21:22.835Z</time>
      </trkpt>
      <trkpt lat="42.3826789856" lon="-8.7217605114">
        <ele>46.139190673828125</ele>
        <time>2021-02-17T16:21:24.177Z</time>
      </trkpt>
      <trkpt lat="42.38276481628" lon="-8.72231841087">
        <ele>51.106964111328125</ele>
        <time>2021-02-17T16:21:25.526Z</time>
      </trkpt>
      <trkpt lat="42.38263615407" lon="-8.72273683548">
        <ele>54.65237808227539</ele>
        <time>2021-02-17T16:21:26.880Z</time>
      </trkpt>
      <trkpt lat="42.38263607025" lon="-8.72273683548">
        <ele>54.652679443359375</ele>
        <time>2021-02-17T16:21:28.234Z</time>
      </trkpt>
      <trkpt lat="42.38071569242" lon="-8.72384190559">
        <ele>62.394351959228516</ele>
        <time>2021-02-17T16:21:29.622Z</time>
      </trkpt>
      <trkpt lat="42.37985738553" lon="-8.72432470322">
        <ele>62.490570068359375</ele>
        <time>2021-02-17T16:21:31.025Z</time>
      </trkpt>
      <trkpt lat="42.37909555435" lon="-8.72475385666">
        <ele>65.729736328125</ele>
        <time>2021-02-17T16:21:32.441Z</time>
      </trkpt>
      <trkpt lat="42.37869867124" lon="-8.72478604317">
        <ele>62.852840423583984</ele>
        <time>2021-02-17T16:21:33.863Z</time>
      </trkpt>
      <trkpt lat="42.37646698952" lon="-8.72429251671">
        <ele>83.62702178955078</ele>
        <time>2021-02-17T16:21:35.321Z</time>
      </trkpt>
      <trkpt lat="42.37595200539" lon="-8.72434616089">
        <ele>80.70043182373047</ele>
        <time>2021-02-17T16:21:36.788Z</time>
      </trkpt>
      <trkpt lat="42.3755979538" lon="-8.72462511063">
        <ele>70.01864624023438</ele>
        <time>2021-02-17T16:21:38.261Z</time>
      </trkpt>
      <trkpt lat="42.3752117157" lon="-8.72516155243">
        <ele>60.26974105834961</ele>
        <time>2021-02-17T16:21:39.743Z</time>
      </trkpt>
      <trkpt lat="42.37505078316" lon="-8.72565507889">
        <ele>59.901756286621094</ele>
        <time>2021-02-17T16:21:41.232Z</time>
      </trkpt>
      <trkpt lat="42.37498641014" lon="-8.72635245323">
        <ele>62.05323791503906</ele>
        <time>2021-02-17T16:21:42.729Z</time>
      </trkpt>
      <trkpt lat="42.37477183342" lon="-8.72682452202">
        <ele>62.0131721496582</ele>
        <time>2021-02-17T16:21:44.232Z</time>
      </trkpt>
      <trkpt lat="42.37451442517" lon="-8.72710347176">
        <ele>60.93170166015625</ele>
        <time>2021-02-17T16:21:45.741Z</time>
      </trkpt>
      <trkpt lat="42.37451434135" lon="-8.72710347176">
        <ele>60.932003021240234</ele>
        <time>2021-02-17T16:21:47.250Z</time>
      </trkpt>
      <trkpt lat="42.37170075705437" lon="-8.729636351102604">
        <ele>68.0734634399414</ele>
        <time>2021-02-17T16:21:48.813Z</time>
      </trkpt>
      <trkpt lat="42.37169902772" lon="-8.72963790782">
        <ele>68.08715057373047</ele>
        <time>2021-02-17T16:21:50.376Z</time>
      </trkpt>
      <trkpt lat="42.37169911154" lon="-8.72963790782">
        <ele>68.08594512939453</ele>
        <time>2021-02-17T16:21:51.939Z</time>
      </trkpt>
      <trkpt lat="42.37042673863" lon="-8.73078346252">
        <ele>62.488914489746094</ele>
        <time>2021-02-17T16:21:53.526Z</time>
      </trkpt>
      <trkpt lat="42.37042665482" lon="-8.73078346252">
        <ele>62.48952102661133</ele>
        <time>2021-02-17T16:21:55.113Z</time>
      </trkpt>
      <trkpt lat="42.37038967773222" lon="-8.73081671763154">
        <ele>62.51631164550781</ele>
        <time>2021-02-17T16:21:56.701Z</time>
      </trkpt>
      <trkpt lat="42.37038834952" lon="-8.73081791215">
        <ele>62.51727294921875</ele>
        <time>2021-02-17T16:21:58.289Z</time>
      </trkpt>
      <trkpt lat="42.37038843334" lon="-8.73081782833">
        <ele>62.51727294921875</ele>
        <time>2021-02-17T16:21:59.877Z</time>
      </trkpt>
      <trkpt lat="42.37042665482" lon="-8.73078346252">
        <ele>62.48952102661133</ele>
        <time>2021-02-17T16:22:01.466Z</time>
      </trkpt>
      <trkpt lat="42.36945041455" lon="-8.72969985008">
        <ele>68.0</ele>
        <time>2021-02-17T16:22:03.075Z</time>
      </trkpt>
      <trkpt lat="42.36946114339" lon="-8.72948527336">
        <ele>68.08243560791016</ele>
        <time>2021-02-17T16:22:04.687Z</time>
      </trkpt>
      <trkpt lat="42.37021288172104" lon="-8.728030068851847">
        <ele>77.11196899414062</ele>
        <time>2021-02-17T16:22:06.320Z</time>
      </trkpt>
      <trkpt lat="42.3702130001" lon="-8.72802983969">
        <ele>77.1136474609375</ele>
        <time>2021-02-17T16:22:07.953Z</time>
      </trkpt>
      <trkpt lat="42.37021291628" lon="-8.72803009115">
        <ele>77.11213684082031</ele>
        <time>2021-02-17T16:22:09.586Z</time>
      </trkpt>
      <trkpt lat="42.37045884132" lon="-8.72755408287">
        <ele>78.78133392333984</ele>
        <time>2021-02-17T16:22:11.226Z</time>
      </trkpt>
      <trkpt lat="42.37212181091" lon="-8.72535467148">
        <ele>93.53272247314453</ele>
        <time>2021-02-17T16:22:12.903Z</time>
      </trkpt>
      <trkpt lat="42.37256169319" lon="-8.72443199158">
        <ele>94.65050506591797</ele>
        <time>2021-02-17T16:22:14.593Z</time>
      </trkpt>
      <trkpt lat="42.37273343839" lon="-8.72377753258">
        <ele>94.65699005126953</ele>
        <time>2021-02-17T16:22:16.291Z</time>
      </trkpt>
      <trkpt lat="42.37273335457" lon="-8.72377753258">
        <ele>94.65728759765625</ele>
        <time>2021-02-17T16:22:17.989Z</time>
      </trkpt>
      <trkpt lat="42.37277626991" lon="-8.72365951538">
        <ele>94.92758178710938</ele>
        <time>2021-02-17T16:22:19.689Z</time>
      </trkpt>
      <trkpt lat="42.37289437093" lon="-8.72310161591">
        <ele>97.62486267089844</ele>
        <time>2021-02-17T16:22:21.395Z</time>
      </trkpt>
      <trkpt lat="42.37289428711" lon="-8.72310161591">
        <ele>97.62516021728516</ele>
        <time>2021-02-17T16:22:23.101Z</time>
      </trkpt>
      <trkpt lat="42.3729801178" lon="-8.72279047966">
        <ele>100.35400390625</ele>
        <time>2021-02-17T16:22:24.811Z</time>
      </trkpt>
      <trkpt lat="42.37335562706" lon="-8.72225403786">
        <ele>108.43062591552734</ele>
        <time>2021-02-17T16:22:26.530Z</time>
      </trkpt>
      <trkpt lat="42.37347372808" lon="-8.72198581696">
        <ele>112.29193115234375</ele>
        <time>2021-02-17T16:22:28.253Z</time>
      </trkpt>
      <trkpt lat="42.37347364426" lon="-8.72198581696">
        <ele>112.29193115234375</ele>
        <time>2021-02-17T16:22:29.976Z</time>
      </trkpt>
      <trkpt lat="42.37417110242" lon="-8.72041940689">
        <ele>128.13746643066406</ele>
        <time>2021-02-17T16:22:31.721Z</time>
      </trkpt>
      <trkpt lat="42.3741710186" lon="-8.72041940689">
        <ele>128.1380615234375</ele>
        <time>2021-02-17T16:22:33.466Z</time>
      </trkpt>
      <trkpt lat="42.3753619194" lon="-8.71838092804">
        <ele>145.90200805664062</ele>
        <time>2021-02-17T16:22:35.241Z</time>
      </trkpt>
      <trkpt lat="42.37593063153" lon="-8.71766209602">
        <ele>151.0</ele>
        <time>2021-02-17T16:22:37.029Z</time>
      </trkpt>
      <trkpt lat="42.37593054771" lon="-8.71766209602">
        <ele>151.0</ele>
        <time>2021-02-17T16:22:38.817Z</time>
      </trkpt>
      <trkpt lat="42.37676739693" lon="-8.71626734734">
        <ele>141.85003662109375</ele>
        <time>2021-02-17T16:22:40.626Z</time>
      </trkpt>
      <trkpt lat="42.37701416016" lon="-8.71573090553">
        <ele>143.46800231933594</ele>
        <time>2021-02-17T16:22:42.443Z</time>
      </trkpt>
      <trkpt lat="42.37838745117" lon="-8.71415376663">
        <ele>140.94920349121094</ele>
        <time>2021-02-17T16:22:44.288Z</time>
      </trkpt>
      <trkpt lat="42.37858065404" lon="-8.7136387825">
        <ele>142.86256408691406</ele>
        <time>2021-02-17T16:22:46.140Z</time>
      </trkpt>
      <trkpt lat="42.37906336784" lon="-8.71204018593">
        <ele>140.47314453125</ele>
        <time>2021-02-17T16:22:48.013Z</time>
      </trkpt>
      <trkpt lat="42.37937458791" lon="-8.71147155762">
        <ele>139.48207092285156</ele>
        <time>2021-02-17T16:22:49.894Z</time>
      </trkpt>
      <trkpt lat="42.37939596176" lon="-8.7112891674">
        <ele>140.41029357910156</ele>
        <time>2021-02-17T16:22:51.777Z</time>
      </trkpt>
      <trkpt lat="42.37963207997" lon="-8.71090292931">
        <ele>140.5331268310547</ele>
        <time>2021-02-17T16:22:53.666Z</time>
      </trkpt>
      <trkpt lat="42.37995386124" lon="-8.71045231819">
        <ele>143.37428283691406</ele>
        <time>2021-02-17T16:22:55.563Z</time>
      </trkpt>
      <trkpt lat="42.38013625145" lon="-8.71004462242">
        <ele>148.27001953125</ele>
        <time>2021-02-17T16:22:57.465Z</time>
      </trkpt>
      <trkpt lat="42.38025426865" lon="-8.70946526527">
        <ele>144.67266845703125</ele>
        <time>2021-02-17T16:22:59.374Z</time>
      </trkpt>
      <trkpt lat="42.38023289479" lon="-8.70918631554">
        <ele>140.54298400878906</ele>
        <time>2021-02-17T16:23:01.287Z</time>
      </trkpt>
      <trkpt lat="42.38014698029" lon="-8.70900392532">
        <ele>138.26451110839844</ele>
        <time>2021-02-17T16:23:03.202Z</time>
      </trkpt>
      <trkpt lat="42.3798286660135" lon="-8.7086082238504">
        <ele>134.55543518066406</ele>
        <time>2021-02-17T16:23:05.124Z</time>
      </trkpt>
      <trkpt lat="42.37982880324125" lon="-8.70860829949379">
        <ele>134.55499267578125</ele>
        <time>2021-02-17T16:23:07.046Z</time>
      </trkpt>
      <trkpt lat="42.379310131073" lon="-8.707963228225708">
        <ele>131.298583984375</ele>
        <time>2021-02-17T16:23:08.979Z</time>
      </trkpt>
      <trkpt lat="42.3775399569422" lon="-8.707298040390015">
        <ele>121.86168670654297</ele>
        <time>2021-02-17T16:23:10.942Z</time>
      </trkpt>
      <trkpt lat="42.37733602523804" lon="-8.707190752029419">
        <ele>122.73626708984375</ele>
        <time>2021-02-17T16:23:12.908Z</time>
      </trkpt>
      <trkpt lat="42.377142906188965" lon="-8.706986904144287">
        <ele>122.54319763183594</ele>
        <time>2021-02-17T16:23:14.878Z</time>
      </trkpt>
      <trkpt lat="42.377121448516846" lon="-8.706750869750977">
        <ele>118.53839111328125</ele>
        <time>2021-02-17T16:23:16.851Z</time>
      </trkpt>
      <trkpt lat="42.377196634188294" lon="-8.706622123718262">
        <ele>115.01213836669922</ele>
        <time>2021-02-17T16:23:18.826Z</time>
      </trkpt>
      <trkpt lat="42.37746477127075" lon="-8.706611394882202">
        <ele>109.99394989013672</ele>
        <time>2021-02-17T16:23:20.805Z</time>
      </trkpt>
      <trkpt lat="42.37886169925332" lon="-8.706832593306899">
        <ele>106.4925765991211</ele>
        <time>2021-02-17T16:23:22.807Z</time>
      </trkpt>
      <trkpt lat="42.37886161543429" lon="-8.706832593306899">
        <ele>106.49348449707031</ele>
        <time>2021-02-17T16:23:24.809Z</time>
      </trkpt>
      <trkpt lat="42.379631996154785" lon="-8.706954717636108">
        <ele>101.79843139648438</ele>
        <time>2021-02-17T16:23:26.823Z</time>
      </trkpt>
      <trkpt lat="42.38113411702216" lon="-8.706525564193726">
        <ele>92.51172637939453</ele>
        <time>2021-02-17T16:23:28.862Z</time>
      </trkpt>
      <trkpt lat="42.381134033203125" lon="-8.706525564193726">
        <ele>92.51202392578125</ele>
        <time>2021-02-17T16:23:30.901Z</time>
      </trkpt>
      <trkpt lat="42.382367849349976" lon="-8.70618224143982">
        <ele>80.96600341796875</ele>
        <time>2021-02-17T16:23:32.960Z</time>
      </trkpt>
      <trkpt lat="42.38344073295593" lon="-8.705141544342041">
        <ele>66.83318328857422</ele>
        <time>2021-02-17T16:23:35.040Z</time>
      </trkpt>
      <trkpt lat="42.384148836135864" lon="-8.703950643539429">
        <ele>58.055267333984375</ele>
        <time>2021-02-17T16:23:37.138Z</time>
      </trkpt>
      <trkpt lat="42.38425620831549" lon="-8.703854084014893">
        <ele>56.68362045288086</ele>
        <time>2021-02-17T16:23:39.238Z</time>
      </trkpt>
      <trkpt lat="42.38482684828341" lon="-8.703605812042952">
        <ele>53.441619873046875</ele>
        <time>2021-02-17T16:23:41.348Z</time>
      </trkpt>
      <trkpt lat="42.38482676446438" lon="-8.703605979681015">
        <ele>53.44584274291992</ele>
        <time>2021-02-17T16:23:43.458Z</time>
      </trkpt>
      <trkpt lat="42.385908365249634" lon="-8.703135251998901">
        <ele>47.18749237060547</ele>
        <time>2021-02-17T16:23:45.586Z</time>
      </trkpt>
      <trkpt lat="42.386133670806885" lon="-8.703103065490723">
        <ele>47.80793380737305</ele>
        <time>2021-02-17T16:23:47.718Z</time>
      </trkpt>
      <trkpt lat="42.38647699356079" lon="-8.70317816734314">
        <ele>48.183570861816406</ele>
        <time>2021-02-17T16:23:49.855Z</time>
      </trkpt>
      <trkpt lat="42.38743185997009" lon="-8.703639507293701">
        <ele>35.51681900024414</ele>
        <time>2021-02-17T16:23:52.008Z</time>
      </trkpt>
      <trkpt lat="42.38798984326422" lon="-8.704025745391846">
        <ele>24.689424514770508</ele>
        <time>2021-02-17T16:23:54.172Z</time>
      </trkpt>
      <trkpt lat="42.38846182823181" lon="-8.704444169998169">
        <ele>24.42935562133789</ele>
        <time>2021-02-17T16:23:56.345Z</time>
      </trkpt>
      <trkpt lat="42.38930940628052" lon="-8.704637289047241">
        <ele>12.232185363769531</ele>
        <time>2021-02-17T16:23:58.531Z</time>
      </trkpt>
      <trkpt lat="42.389749540016055" lon="-8.70482730679214">
        <ele>9.729166030883789</ele>
        <time>2021-02-17T16:24:00.725Z</time>
      </trkpt>
      <trkpt lat="42.38975000000001" lon="-8.704830000000001">
        <ele>9.759900093078613</ele>
        <time>2021-02-17T16:24:02.919Z</time>
      </trkpt>
      <trkpt lat="42.3902" lon="-8.70494">
        <ele>13.396889686584473</ele>
        <time>2021-02-17T16:24:05.120Z</time>
      </trkpt>
      <trkpt lat="42.39058" lon="-8.705010000000001">
        <ele>14.633657455444336</ele>
        <time>2021-02-17T16:24:07.327Z</time>
      </trkpt>
      <trkpt lat="42.390890000000006" lon="-8.70503">
        <ele>13.686920166015625</ele>
        <time>2021-02-17T16:24:09.539Z</time>
      </trkpt>
      <trkpt lat="42.39148" lon="-8.70508">
        <ele>12.0</ele>
        <time>2021-02-17T16:24:11.761Z</time>
      </trkpt>
      <trkpt lat="42.392340000000004" lon="-8.70513">
        <ele>8.0</ele>
        <time>2021-02-17T16:24:13.996Z</time>
      </trkpt>
      <trkpt lat="42.39242" lon="-8.705110000000001">
        <ele>8.0</ele>
        <time>2021-02-17T16:24:16.233Z</time>
      </trkpt>
      <trkpt lat="42.39253" lon="-8.705060000000001">
        <ele>8.215439796447754</ele>
        <time>2021-02-17T16:24:18.472Z</time>
      </trkpt>
      <trkpt lat="42.39265" lon="-8.704970000000001">
        <ele>8.960233688354492</ele>
        <time>2021-02-17T16:24:20.713Z</time>
      </trkpt>
      <trkpt lat="42.39282" lon="-8.70481">
        <ele>10.147903442382812</ele>
        <time>2021-02-17T16:24:22.957Z</time>
      </trkpt>
      <trkpt lat="42.393170000000005" lon="-8.70448">
        <ele>7.8095526695251465</ele>
        <time>2021-02-17T16:24:25.208Z</time>
      </trkpt>
      <trkpt lat="42.39338" lon="-8.704260000000001">
        <ele>4.714412689208984</ele>
        <time>2021-02-17T16:24:27.463Z</time>
      </trkpt>
      <trkpt lat="42.39345" lon="-8.704130000000001">
        <ele>3.6108858585357666</ele>
        <time>2021-02-17T16:24:29.720Z</time>
      </trkpt>
      <trkpt lat="42.393510000000006" lon="-8.703890000000001">
        <ele>2.972452163696289</ele>
        <time>2021-02-17T16:24:31.980Z</time>
      </trkpt>
      <trkpt lat="42.393530000000005" lon="-8.70354">
        <ele>4.661205291748047</ele>
        <time>2021-02-17T16:24:34.244Z</time>
      </trkpt>
      <trkpt lat="42.3935" lon="-8.70329">
        <ele>6.533351898193359</ele>
        <time>2021-02-17T16:24:36.511Z</time>
      </trkpt>
      <trkpt lat="42.393420000000006" lon="-8.70317">
        <ele>8.116911888122559</ele>
        <time>2021-02-17T16:24:38.780Z</time>
      </trkpt>
      <trkpt lat="42.393420000000006" lon="-8.70311">
        <ele>8.325798034667969</ele>
        <time>2021-02-17T16:24:41.050Z</time>
      </trkpt>
      <trkpt lat="42.39341" lon="-8.702860000000001">
        <ele>7.945515155792236</ele>
        <time>2021-02-17T16:24:43.323Z</time>
      </trkpt>
      <trkpt lat="42.39340000000001" lon="-8.702850000000002">
        <ele>8.017495155334473</ele>
        <time>2021-02-17T16:24:45.596Z</time>
      </trkpt>
      <trkpt lat="42.393390000000004" lon="-8.70283">
        <ele>8.068259239196777</ele>
        <time>2021-02-17T16:24:47.869Z</time>
      </trkpt>
      <trkpt lat="42.393370000000004" lon="-8.70279">
        <ele>8.284198760986328</ele>
        <time>2021-02-17T16:24:50.143Z</time>
      </trkpt>
      <trkpt lat="42.393370000000004" lon="-8.70275">
        <ele>8.284198760986328</ele>
        <time>2021-02-17T16:24:52.417Z</time>
      </trkpt>
      <trkpt lat="42.393390000000004" lon="-8.70266">
        <ele>8.068259239196777</ele>
        <time>2021-02-17T16:24:54.692Z</time>
      </trkpt>
      <trkpt lat="42.39341" lon="-8.70264">
        <ele>7.85231876373291</ele>
        <time>2021-02-17T16:24:56.968Z</time>
      </trkpt>
      <trkpt lat="42.39338" lon="-8.701910000000002">
        <ele>6.6741461753845215</ele>
        <time>2021-02-17T16:24:59.252Z</time>
      </trkpt>
      <trkpt lat="42.39331000000001" lon="-8.70153">
        <ele>5.977339744567871</ele>
        <time>2021-02-17T16:25:01.541Z</time>
      </trkpt>
      <trkpt lat="42.39322000000001" lon="-8.70086">
        <ele>7.309803009033203</ele>
        <time>2021-02-17T16:25:03.838Z</time>
      </trkpt>
      <trkpt lat="42.393130000000006" lon="-8.700140000000001">
        <ele>9.500638961791992</ele>
        <time>2021-02-17T16:25:06.144Z</time>
      </trkpt>
      <trkpt lat="42.39311" lon="-8.70007">
        <ele>9.788558959960938</ele>
        <time>2021-02-17T16:25:08.451Z</time>
      </trkpt>
      <trkpt lat="42.393080000000005" lon="-8.70001">
        <ele>10.220438957214355</ele>
        <time>2021-02-17T16:25:10.759Z</time>
      </trkpt>
      <trkpt lat="42.39294" lon="-8.69899">
        <ele>7.235878944396973</ele>
        <time>2021-02-17T16:25:13.079Z</time>
      </trkpt>
      <trkpt lat="42.39276" lon="-8.697640000000002">
        <ele>10.17678451538086</ele>
        <time>2021-02-17T16:25:15.415Z</time>
      </trkpt>
      <trkpt lat="42.39276" lon="-8.69745">
        <ele>9.492974281311035</ele>
        <time>2021-02-17T16:25:17.753Z</time>
      </trkpt>
      <trkpt lat="42.392810000000004" lon="-8.69697">
        <ele>7.776839733123779</ele>
        <time>2021-02-17T16:25:20.097Z</time>
      </trkpt>
      <trkpt lat="42.39285" lon="-8.69678">
        <ele>7.632879734039307</ele>
        <time>2021-02-17T16:25:22.444Z</time>
      </trkpt>
      <trkpt lat="42.393010000000004" lon="-8.69622">
        <ele>7.9182448387146</ele>
        <time>2021-02-17T16:25:24.798Z</time>
      </trkpt>
      <trkpt lat="42.39309" lon="-8.69604">
        <ele>7.990224838256836</ele>
        <time>2021-02-17T16:25:27.154Z</time>
      </trkpt>
      <trkpt lat="42.393150000000006" lon="-8.69598">
        <ele>7.774284839630127</ele>
        <time>2021-02-17T16:25:29.511Z</time>
      </trkpt>
      <trkpt lat="42.39323" lon="-8.695820000000001">
        <ele>7.774284839630127</ele>
        <time>2021-02-17T16:25:31.871Z</time>
      </trkpt>
      <trkpt lat="42.39332" lon="-8.69565">
        <ele>7.738295078277588</ele>
        <time>2021-02-17T16:25:34.233Z</time>
      </trkpt>
      <trkpt lat="42.393600000000006" lon="-8.69532">
        <ele>6.8672590255737305</ele>
        <time>2021-02-17T16:25:36.601Z</time>
      </trkpt>
      <trkpt lat="42.3941" lon="-8.69463">
        <ele>5.321410655975342</ele>
        <time>2021-02-17T16:25:38.980Z</time>
      </trkpt>
      <trkpt lat="42.394450000000006" lon="-8.694170000000002">
        <ele>6.364232063293457</ele>
        <time>2021-02-17T16:25:41.367Z</time>
      </trkpt>
      <trkpt lat="42.394670000000005" lon="-8.69392">
        <ele>8.245598793029785</ele>
        <time>2021-02-17T16:25:43.759Z</time>
      </trkpt>
      <trkpt lat="42.395010000000006" lon="-8.69359">
        <ele>10.116189956665039</ele>
        <time>2021-02-17T16:25:46.158Z</time>
      </trkpt>
      <trkpt lat="42.395230000000005" lon="-8.6934">
        <ele>9.10846996307373</ele>
        <time>2021-02-17T16:25:48.561Z</time>
      </trkpt>
      <trkpt lat="42.395830000000004" lon="-8.693000000000001">
        <ele>7.300805568695068</ele>
        <time>2021-02-17T16:25:50.974Z</time>
      </trkpt>
      <trkpt lat="42.396660000000004" lon="-8.692440000000001">
        <ele>10.987225532531738</ele>
        <time>2021-02-17T16:25:53.402Z</time>
      </trkpt>
      <trkpt lat="42.3969" lon="-8.69227">
        <ele>10.231435775756836</ele>
        <time>2021-02-17T16:25:55.835Z</time>
      </trkpt>
      <trkpt lat="42.396980000000006" lon="-8.69217">
        <ele>10.447375297546387</ele>
        <time>2021-02-17T16:25:58.269Z</time>
      </trkpt>
      <trkpt lat="42.39735" lon="-8.691920000000001">
        <ele>9.714357376098633</ele>
        <time>2021-02-17T16:26:00.710Z</time>
      </trkpt>
      <trkpt lat="42.39822" lon="-8.691260000000002">
        <ele>6.0</ele>
        <time>2021-02-17T16:26:03.167Z</time>
      </trkpt>
      <trkpt lat="42.398770000000006" lon="-8.69082">
        <ele>4.326797962188721</ele>
        <time>2021-02-17T16:26:05.634Z</time>
      </trkpt>
      <trkpt lat="42.39936" lon="-8.69027">
        <ele>6.218217372894287</ele>
        <time>2021-02-17T16:26:08.113Z</time>
      </trkpt>
      <trkpt lat="42.39952" lon="-8.69007">
        <ele>6.56556510925293</ele>
        <time>2021-02-17T16:26:10.595Z</time>
      </trkpt>
      <trkpt lat="42.39974" lon="-8.68973">
        <ele>6.674090385437012</ele>
        <time>2021-02-17T16:26:13.083Z</time>
      </trkpt>
      <trkpt lat="42.399980000000006" lon="-8.689250000000001">
        <ele>5.861205101013184</ele>
        <time>2021-02-17T16:26:15.577Z</time>
      </trkpt>
      <trkpt lat="42.400400000000005" lon="-8.688320000000001">
        <ele>7.617550849914551</ele>
        <time>2021-02-17T16:26:18.084Z</time>
      </trkpt>
      <trkpt lat="42.40072000000001" lon="-8.687740000000002">
        <ele>9.220993995666504</ele>
        <time>2021-02-17T16:26:20.600Z</time>
      </trkpt>
      <trkpt lat="42.40088" lon="-8.68748">
        <ele>10.442821502685547</ele>
        <time>2021-02-17T16:26:23.120Z</time>
      </trkpt>
      <trkpt lat="42.40146" lon="-8.686710000000001">
        <ele>9.967120170593262</ele>
        <time>2021-02-17T16:26:25.653Z</time>
      </trkpt>
      <trkpt lat="42.40218" lon="-8.68585">
        <ele>7.414218425750732</ele>
        <time>2021-02-17T16:26:28.201Z</time>
      </trkpt>
      <trkpt lat="42.40223" lon="-8.68579">
        <ele>7.306248188018799</ele>
        <time>2021-02-17T16:26:30.750Z</time>
      </trkpt>
      <trkpt lat="42.40258" lon="-8.68537">
        <ele>6.935851097106934</ele>
        <time>2021-02-17T16:26:33.307Z</time>
      </trkpt>
      <trkpt lat="42.403130000000004" lon="-8.68477">
        <ele>6.308469772338867</ele>
        <time>2021-02-17T16:26:35.875Z</time>
      </trkpt>
      <trkpt lat="42.403380000000006" lon="-8.684600000000001">
        <ele>6.3444600105285645</ele>
        <time>2021-02-17T16:26:38.448Z</time>
      </trkpt>
      <trkpt lat="42.403690000000005" lon="-8.68443">
        <ele>5.9485697746276855</ele>
        <time>2021-02-17T16:26:41.026Z</time>
      </trkpt>
      <trkpt lat="42.403980000000004" lon="-8.68434">
        <ele>5.680866241455078</ele>
        <time>2021-02-17T16:26:43.609Z</time>
      </trkpt>
      <trkpt lat="42.405010000000004" lon="-8.68421">
        <ele>7.738072872161865</ele>
        <time>2021-02-17T16:26:46.208Z</time>
      </trkpt>
      <trkpt lat="42.40518" lon="-8.68416">
        <ele>6.514412879943848</ele>
        <time>2021-02-17T16:26:48.810Z</time>
      </trkpt>
      <trkpt lat="42.40522000000001" lon="-8.68412">
        <ele>6.226492404937744</ele>
        <time>2021-02-17T16:26:51.413Z</time>
      </trkpt>
      <trkpt lat="42.40549" lon="-8.684000000000001">
        <ele>5.925465106964111</ele>
        <time>2021-02-17T16:26:54.020Z</time>
      </trkpt>
      <trkpt lat="42.40560000000001" lon="-8.683900000000001">
        <ele>5.889475345611572</ele>
        <time>2021-02-17T16:26:56.630Z</time>
      </trkpt>
      <trkpt lat="42.406000000000006" lon="-8.68349">
        <ele>6.0</ele>
        <time>2021-02-17T16:26:59.248Z</time>
      </trkpt>
      <trkpt lat="42.40617" lon="-8.68328">
        <ele>5.318966865539551</ele>
        <time>2021-02-17T16:27:01.869Z</time>
      </trkpt>
      <trkpt lat="42.40711" lon="-8.68206">
        <ele>0.6222715973854065</ele>
        <time>2021-02-17T16:27:04.511Z</time>
      </trkpt>
      <trkpt lat="42.40807" lon="-8.68084">
        <ele>2.012885332107544</ele>
        <time>2021-02-17T16:27:07.174Z</time>
      </trkpt>
      <trkpt lat="42.41109" lon="-8.677010000000001">
        <ele>4.640377521514893</ele>
        <time>2021-02-17T16:27:09.903Z</time>
      </trkpt>
      <trkpt lat="42.413450000000005" lon="-8.67401">
        <ele>5.244487762451172</ele>
        <time>2021-02-17T16:27:12.684Z</time>
      </trkpt>
      <trkpt lat="42.41581" lon="-8.670990000000002">
        <ele>0.9998334050178528</ele>
        <time>2021-02-17T16:27:15.517Z</time>
      </trkpt>
      <trkpt lat="42.416140000000006" lon="-8.67054">
        <ele>0.0</ele>
        <time>2021-02-17T16:27:18.358Z</time>
      </trkpt>
      <trkpt lat="42.41639000000001" lon="-8.67017">
        <ele>0.0</ele>
        <time>2021-02-17T16:27:21.205Z</time>
      </trkpt>
      <trkpt lat="42.416850000000004" lon="-8.669350000000001">
        <ele>0.0</ele>
        <time>2021-02-17T16:27:24.064Z</time>
      </trkpt>
      <trkpt lat="42.41711" lon="-8.66887">
        <ele>0.0</ele>
        <time>2021-02-17T16:27:26.930Z</time>
      </trkpt>
      <trkpt lat="42.41751" lon="-8.668230000000001">
        <ele>3.795445680618286</ele>
        <time>2021-02-17T16:27:29.806Z</time>
      </trkpt>
      <trkpt lat="42.41783" lon="-8.66778">
        <ele>8.166009902954102</ele>
        <time>2021-02-17T16:27:32.689Z</time>
      </trkpt>
      <trkpt lat="42.41843" lon="-8.66709">
        <ele>6.274979114532471</ele>
        <time>2021-02-17T16:27:35.585Z</time>
      </trkpt>
      <trkpt lat="42.419700000000006" lon="-8.66577">
        <ele>0.7868925333023071</ele>
        <time>2021-02-17T16:27:38.507Z</time>
      </trkpt>
      <trkpt lat="42.42027" lon="-8.66519">
        <ele>1.8071646690368652</ele>
        <time>2021-02-17T16:27:41.440Z</time>
      </trkpt>
      <trkpt lat="42.42063" lon="-8.66478">
        <ele>0.0</ele>
        <time>2021-02-17T16:27:44.381Z</time>
      </trkpt>
      <trkpt lat="42.42087" lon="-8.66444">
        <ele>0.0</ele>
        <time>2021-02-17T16:27:47.327Z</time>
      </trkpt>
      <trkpt lat="42.42108" lon="-8.664060000000001">
        <ele>0.0</ele>
        <time>2021-02-17T16:27:50.279Z</time>
      </trkpt>
      <trkpt lat="42.4213" lon="-8.66351">
        <ele>0.0</ele>
        <time>2021-02-17T16:27:53.238Z</time>
      </trkpt>
      <trkpt lat="42.421420000000005" lon="-8.663060000000002">
        <ele>0.0</ele>
        <time>2021-02-17T16:27:56.203Z</time>
      </trkpt>
      <trkpt lat="42.42181" lon="-8.6613">
        <ele>0.0</ele>
        <time>2021-02-17T16:27:59.190Z</time>
      </trkpt>
      <trkpt lat="42.42221000000001" lon="-8.659370000000001">
        <ele>0.0</ele>
        <time>2021-02-17T16:28:02.200Z</time>
      </trkpt>
      <trkpt lat="42.42228" lon="-8.658650000000002">
        <ele>2.857206344604492</ele>
        <time>2021-02-17T16:28:05.219Z</time>
      </trkpt>
      <trkpt lat="42.422320000000006" lon="-8.658420000000001">
        <ele>1.864648699760437</ele>
        <time>2021-02-17T16:28:08.241Z</time>
      </trkpt>
      <trkpt lat="42.42237" lon="-8.658180000000002">
        <ele>1.1711746454238892</ele>
        <time>2021-02-17T16:28:11.266Z</time>
      </trkpt>
      <trkpt lat="42.42249" lon="-8.657770000000001">
        <ele>2.06126070022583</ele>
        <time>2021-02-17T16:28:14.296Z</time>
      </trkpt>
      <trkpt lat="42.422560000000004" lon="-8.657580000000001">
        <ele>1.9892807006835938</ele>
        <time>2021-02-17T16:28:17.328Z</time>
      </trkpt>
      <trkpt lat="42.42277000000001" lon="-8.65712">
        <ele>0.0</ele>
        <time>2021-02-17T16:28:20.367Z</time>
      </trkpt>
      <trkpt lat="42.422940000000004" lon="-8.65675">
        <ele>0.5870035886764526</ele>
        <time>2021-02-17T16:28:23.411Z</time>
      </trkpt>
      <trkpt lat="42.423170000000006" lon="-8.6563">
        <ele>0.0</ele>
        <time>2021-02-17T16:28:26.461Z</time>
      </trkpt>
      <trkpt lat="42.423460000000006" lon="-8.65586">
        <ele>1.8699250221252441</ele>
        <time>2021-02-17T16:28:29.518Z</time>
      </trkpt>
      <trkpt lat="42.423770000000005" lon="-8.655460000000001">
        <ele>0.0</ele>
        <time>2021-02-17T16:28:32.582Z</time>
      </trkpt>
      <trkpt lat="42.42481" lon="-8.654380000000002">
        <ele>3.3718411922454834</ele>
        <time>2021-02-17T16:28:35.667Z</time>
      </trkpt>
      <trkpt lat="42.42586" lon="-8.65328">
        <ele>4.834879398345947</ele>
        <time>2021-02-17T16:28:38.774Z</time>
      </trkpt>
      <trkpt lat="42.426480000000005" lon="-8.652660000000001">
        <ele>4.328353404998779</ele>
        <time>2021-02-17T16:28:41.893Z</time>
      </trkpt>
      <trkpt lat="42.426770000000005" lon="-8.65243">
        <ele>6.617550849914551</ele>
        <time>2021-02-17T16:28:45.017Z</time>
      </trkpt>
      <trkpt lat="42.42678" lon="-8.652420000000001">
        <ele>6.761510848999023</ele>
        <time>2021-02-17T16:28:48.142Z</time>
      </trkpt>
      <trkpt lat="42.4269" lon="-8.65234">
        <ele>7.913190841674805</ele>
        <time>2021-02-17T16:28:51.269Z</time>
      </trkpt>
      <trkpt lat="42.42691000000001" lon="-8.652320000000001">
        <ele>8.20111083984375</ele>
        <time>2021-02-17T16:28:54.396Z</time>
      </trkpt>
      <trkpt lat="42.42692" lon="-8.65229">
        <ele>8.632990837097168</ele>
        <time>2021-02-17T16:28:57.523Z</time>
      </trkpt>
      <trkpt lat="42.426930000000006" lon="-8.65226">
        <ele>8.978950500488281</ele>
        <time>2021-02-17T16:29:00.651Z</time>
      </trkpt>
      <trkpt lat="42.42698" lon="-8.652220000000002">
        <ele>8.79900074005127</ele>
        <time>2021-02-17T16:29:03.780Z</time>
      </trkpt>
      <trkpt lat="42.42705" lon="-8.65221">
        <ele>8.547070503234863</ele>
        <time>2021-02-17T16:29:06.910Z</time>
      </trkpt>
      <trkpt lat="42.427080000000004" lon="-8.652230000000001">
        <ele>8.43910026550293</ele>
        <time>2021-02-17T16:29:10.040Z</time>
      </trkpt>
      <trkpt lat="42.42721" lon="-8.65211">
        <ele>8.028769493103027</ele>
        <time>2021-02-17T16:29:13.173Z</time>
      </trkpt>
      <trkpt lat="42.427420000000005" lon="-8.651950000000001">
        <ele>8.784560203552246</ele>
        <time>2021-02-17T16:29:16.310Z</time>
      </trkpt>
      <trkpt lat="42.42777" lon="-8.651720000000001">
        <ele>10.556456565856934</ele>
        <time>2021-02-17T16:29:19.453Z</time>
      </trkpt>
      <trkpt lat="42.428050000000006" lon="-8.65169">
        <ele>11.0314359664917</ele>
        <time>2021-02-17T16:29:22.600Z</time>
      </trkpt>
      <trkpt lat="42.42828" lon="-8.65174">
        <ele>8.005276679992676</ele>
        <time>2021-02-17T16:29:25.751Z</time>
      </trkpt>
      <trkpt lat="42.42857" lon="-8.65183">
        <ele>6.767953395843506</ele>
        <time>2021-02-17T16:29:28.907Z</time>
      </trkpt>
      <trkpt lat="42.428810000000006" lon="-8.65191">
        <ele>6.063037872314453</ele>
        <time>2021-02-17T16:29:32.067Z</time>
      </trkpt>
      <trkpt lat="42.428830000000005" lon="-8.651900000000001">
        <ele>6.171008110046387</ele>
        <time>2021-02-17T16:29:35.227Z</time>
      </trkpt>
      <trkpt lat="42.42886" lon="-8.65191">
        <ele>6.242988109588623</ele>
        <time>2021-02-17T16:29:38.388Z</time>
      </trkpt>
      <trkpt lat="42.428920000000005" lon="-8.651990000000001">
        <ele>6.183060169219971</ele>
        <time>2021-02-17T16:29:41.550Z</time>
      </trkpt>
      <trkpt lat="42.42893" lon="-8.652050000000001">
        <ele>6.219050407409668</ele>
        <time>2021-02-17T16:29:44.713Z</time>
      </trkpt>
      <trkpt lat="42.42897000000001" lon="-8.65215">
        <ele>6.363010406494141</ele>
        <time>2021-02-17T16:29:47.877Z</time>
      </trkpt>
      <trkpt lat="42.429010000000005" lon="-8.65304">
        <ele>5.715967655181885</ele>
        <time>2021-02-17T16:29:51.052Z</time>
      </trkpt>
      <trkpt lat="42.42904" lon="-8.65329">
        <ele>5.3092474937438965</ele>
        <time>2021-02-17T16:29:54.230Z</time>
      </trkpt>
      <trkpt lat="42.42907" lon="-8.65347">
        <ele>5.277089595794678</ele>
        <time>2021-02-17T16:29:57.410Z</time>
      </trkpt>
      <trkpt lat="42.42911" lon="-8.653540000000001">
        <ele>5.133129596710205</ele>
        <time>2021-02-17T16:30:00.591Z</time>
      </trkpt>
      <trkpt lat="42.429120000000005" lon="-8.65357">
        <ele>5.097139835357666</ele>
        <time>2021-02-17T16:30:03.772Z</time>
      </trkpt>
      <trkpt lat="42.42924" lon="-8.653770000000002">
        <ele>5.418272495269775</ele>
        <time>2021-02-17T16:30:06.956Z</time>
      </trkpt>
      <trkpt lat="42.429390000000005" lon="-8.653880000000001">
        <ele>5.1254096031188965</ele>
        <time>2021-02-17T16:30:10.143Z</time>
      </trkpt>
      <trkpt lat="42.429570000000005" lon="-8.653960000000001">
        <ele>5.420327663421631</ele>
        <time>2021-02-17T16:30:13.333Z</time>
      </trkpt>
      <trkpt lat="42.42965" lon="-8.653970000000001">
        <ele>5.672257900238037</ele>
        <time>2021-02-17T16:30:16.524Z</time>
      </trkpt>
      <trkpt lat="42.429770000000005" lon="-8.65395">
        <ele>6.352235317230225</ele>
        <time>2021-02-17T16:30:19.717Z</time>
      </trkpt>
      <trkpt lat="42.43036" lon="-8.6537">
        <ele>10.07142448425293</ele>
        <time>2021-02-17T16:30:22.920Z</time>
      </trkpt>
      <trkpt lat="42.4318" lon="-8.65305">
        <ele>9.067203521728516</ele>
        <time>2021-02-17T16:30:26.148Z</time>
      </trkpt>
      <trkpt lat="42.432140000000004" lon="-8.652890000000001">
        <ele>9.541905403137207</ele>
        <time>2021-02-17T16:30:29.381Z</time>
      </trkpt>
      <trkpt lat="42.43224" lon="-8.652840000000001">
        <ele>9.024493217468262</ele>
        <time>2021-02-17T16:30:32.616Z</time>
      </trkpt>
      <trkpt lat="42.432370000000006" lon="-8.652750000000001">
        <ele>9.306192398071289</ele>
        <time>2021-02-17T16:30:35.853Z</time>
      </trkpt>
      <trkpt lat="42.43249" lon="-8.65263">
        <ele>9.306192398071289</ele>
        <time>2021-02-17T16:30:39.093Z</time>
      </trkpt>
      <trkpt lat="42.432660000000006" lon="-8.65239">
        <ele>10.358400344848633</ele>
        <time>2021-02-17T16:30:42.337Z</time>
      </trkpt>
      <trkpt lat="42.43298" lon="-8.65196">
        <ele>12.203665733337402</ele>
        <time>2021-02-17T16:30:45.588Z</time>
      </trkpt>
      <trkpt lat="42.43303478894541" lon="-8.652108907699585">
        <ele>8.83906078338623</ele>
        <time>2021-02-17T16:30:48.841Z</time>
      </trkpt>
      <trkpt lat="42.43303" lon="-8.6521">
        <ele>9.085532188415527</ele>
        <time>2021-02-17T16:30:52.094Z</time>
      </trkpt>
      <trkpt lat="42.43247" lon="-8.652800000000001">
        <ele>8.226492881774902</ele>
        <time>2021-02-17T16:30:55.359Z</time>
      </trkpt>
      <trkpt lat="42.43225" lon="-8.65297">
        <ele>4.273812770843506</ele>
        <time>2021-02-17T16:30:58.628Z</time>
      </trkpt>
      <trkpt lat="42.430440000000004" lon="-8.65379">
        <ele>7.012940883636475</ele>
        <time>2021-02-17T16:31:01.928Z</time>
      </trkpt>
      <trkpt lat="42.430510000000005" lon="-8.65376">
        <ele>6.221160888671875</ele>
        <time>2021-02-17T16:31:05.229Z</time>
      </trkpt>
    </trkseg>
  </trk>
</gpx>
